Observation data for Coyanosa on 07/11/2018      Previous  Date       Current Mesonet Observations  Soil Data  Daily Summary Page  Observations in Plain Language
KCO1 110501Z 16005KT 23/17 A3011 RMK A01 T02320173  RH  069%=      5-min Rain = 0
KCO1 110502Z 16005KT 23/17 A3011 RMK A01 T02310172  RH  069%=      5-min Rain = 0
KCO1 110503Z 16004KT 23/17 A3011 RMK A01 T02310172  RH  070%=      5-min Rain = 0
KCO1 110504Z 16004KT 23/17 A3011 RMK A01 T02310172  RH  070%=      5-min Rain = 0
KCO1 110505Z 16004KT 23/17 A3011 RMK A01 T02300172  RH  070%=      5-min Rain = 0
KCO1 110506Z 15004KT 23/17 A3011 RMK A01 T02300172  RH  070%=      5-min Rain = 0
KCO1 110507Z 15004KT 23/17 A3011 RMK A01 T02300173  RH  070%=      5-min Rain = 0
KCO1 110508Z 15004KT 23/17 A3011 RMK A01 T02300173  RH  070%=      5-min Rain = 0
KCO1 110509Z 15003KT 23/17 A3011 RMK A01 T02300173  RH  070%=      5-min Rain = 0
KCO1 110510Z 14004KT 23/17 A3011 RMK A01 T02290173  RH  071%=      5-min Rain = 0
KCO1 110511Z 14004KT 23/17 A3011 RMK A01 T02290173  RH  071%=      5-min Rain = 0
KCO1 110512Z 15004KT 23/17 A3011 RMK A01 T02290173  RH  071%=      5-min Rain = 0
KCO1 110513Z 15004KT 23/17 A3011 RMK A01 T02280173  RH  071%=      5-min Rain = 0
KCO1 110514Z 15004KT 23/17 A3011 RMK A01 T02280173  RH  071%=      5-min Rain = 0
KCO1 110515Z 15004KT 23/17 A3011 RMK A01 T02280173  RH  071%=      5-min Rain = 0
KCO1 110516Z 16004KT 23/17 A3011 RMK A01 T02280173  RH  071%=      5-min Rain = 0
KCO1 110517Z 15004KT 23/17 A3011 RMK A01 T02280173  RH  071%=      5-min Rain = 0
KCO1 110518Z 14004KT 23/17 A3011 RMK A01 T02280173  RH  071%=      5-min Rain = 0
KCO1 110519Z 16004KT 23/17 A301 RMK A01 T02270172  RH  071%=      5-min Rain = 0
KCO1 110520Z 17004KT 23/17 A301 RMK A01 T02270172  RH  071%=      5-min Rain = 0
KCO1 110521Z 15004KT 23/17 A301 RMK A01 T02270172  RH  071%=      5-min Rain = 0
KCO1 110522Z 15004KT 23/17 A301 RMK A01 T02270173  RH  071%=      5-min Rain = 0
KCO1 110523Z 15003KT 23/17 A301 RMK A01 T02270173  RH  072%=      5-min Rain = 0
KCO1 110524Z 14003KT 23/17 A301 RMK A01 T02260173  RH  072%=      5-min Rain = 0
KCO1 110525Z 14004KT 23/17 A301 RMK A01 T02260173  RH  072%=      5-min Rain = 0
KCO1 110526Z 14004KT 23/17 A301 RMK A01 T02260173  RH  072%=      5-min Rain = 0
KCO1 110527Z 14004KT 23/17 A301 RMK A01 T02260173  RH  072%=      5-min Rain = 0
KCO1 110528Z 14004KT 23/17 A301 RMK A01 T02260173  RH  072%=      5-min Rain = 0
KCO1 110529Z 14004KT 23/17 A301 RMK A01 T02260173  RH  072%=      5-min Rain = 0
KCO1 110530Z 13004KT 23/17 A301 RMK A01 T02260173  RH  072%=      5-min Rain = 0
KCO1 110531Z 14004KT 23/17 A301 RMK A01 T02260173  RH  072%=      5-min Rain = 0
KCO1 110532Z 14004KT 23/17 A301 RMK A01 T02250173  RH  072%=      5-min Rain = 0
KCO1 110533Z 13004KT 23/17 A301 RMK A01 T02250173  RH  072%=      5-min Rain = 0
KCO1 110534Z 13004KT 23/17 A301 RMK A01 T02250174  RH  073%=      5-min Rain = 0
KCO1 110535Z 14005KT 22/17 A301 RMK A01 T02240173  RH  073%=      5-min Rain = 0
KCO1 110536Z 14005KT 22/17 A301 RMK A01 T02240173  RH  073%=      5-min Rain = 0
KCO1 110537Z 14005KT 22/17 A301 RMK A01 T02230173  RH  073%=      5-min Rain = 0
KCO1 110538Z 14005KT 22/17 A301 RMK A01 T02230173  RH  073%=      5-min Rain = 0
KCO1 110539Z 15005KT 22/17 A301 RMK A01 T02230173  RH  073%=      5-min Rain = 0
KCO1 110540Z 14004KT 22/17 A301 RMK A01 T02230173  RH  073%=      5-min Rain = 0
KCO1 110541Z 14004KT 22/17 A301 RMK A01 T02220173  RH  074%=      5-min Rain = 0
KCO1 110542Z 13004KT 22/17 A301 RMK A01 T02220173  RH  074%=      5-min Rain = 0
KCO1 110543Z 11004KT 22/17 A301 RMK A01 T02220173  RH  074%=      5-min Rain = 0
KCO1 110544Z 13005KT 22/17 A301 RMK A01 T02210173  RH  074%=      5-min Rain = 0
KCO1 110545Z 13004KT 22/17 A301 RMK A01 T02210173  RH  074%=      5-min Rain = 0
KCO1 110546Z 13004KT 22/17 A301 RMK A01 T02210173  RH  074%=      5-min Rain = 0
KCO1 110547Z 12004KT 22/17 A301 RMK A01 T02210173  RH  074%=      5-min Rain = 0
KCO1 110548Z 11004KT 22/17 A301 RMK A01 T02210173  RH  074%=      5-min Rain = 0
KCO1 110549Z 11004KT 22/17 A301 RMK A01 T02210173  RH  074%=      5-min Rain = 0
KCO1 110550Z 11004KT 22/17 A301 RMK A01 T02210174  RH  074%=      5-min Rain = 0
KCO1 110551Z 12004KT 22/17 A3009 RMK A01 T02210173  RH  074%=      5-min Rain = 0
KCO1 110552Z 11004KT 22/17 A3009 RMK A01 T02210174  RH  074%=      5-min Rain = 0
KCO1 110553Z 10004KT 22/17 A3009 RMK A01 T02210174  RH  074%=      5-min Rain = 0
KCO1 110554Z 11003KT 22/17 A3009 RMK A01 T02210174  RH  074%=      5-min Rain = 0
KCO1 110555Z 10004KT 22/17 A301 RMK A01 T02210174  RH  074%=      5-min Rain = 0
KCO1 110556Z 10003KT 22/17 A3009 RMK A01 T02210174  RH  074%=      5-min Rain = 0
KCO1 110557Z 09003KT 22/17 A301 RMK A01 T02210174  RH  075%=      5-min Rain = 0
KCO1 110558Z 10003KT 22/17 A301 RMK A01 T02210174  RH  075%=      5-min Rain = 0
KCO1 110559Z 10003KT 22/17 A301 RMK A01 T02210174  RH  075%=      5-min Rain = 0
KCO1 110600Z 10003KT 22/17 A301 RMK A01 T02210174  RH  075%=      5-min Rain = 0
KCO1 110601Z 11003KT 22/17 A301 RMK A01 T02200174  RH  075%=      5-min Rain = 0
KCO1 110602Z 11003KT 22/17 A301 RMK A01 T02200174  RH  075%=      5-min Rain = 0
KCO1 110603Z 11004KT 22/17 A301 RMK A01 T02200174  RH  075%=      5-min Rain = 0
KCO1 110604Z 10004KT 22/17 A301 RMK A01 T02210174  RH  075%=      5-min Rain = 0
KCO1 110605Z 10004KT 22/18 A301 RMK A01 T02210175  RH  075%=      5-min Rain = 0
KCO1 110606Z 11004KT 22/17 A301 RMK A01 T02200174  RH  075%=      5-min Rain = 0
KCO1 110607Z 12004KT 22/18 A301 RMK A01 T02200175  RH  075%=      5-min Rain = 0
KCO1 110608Z 11003KT 22/18 A301 RMK A01 T02200175  RH  076%=      5-min Rain = 0
KCO1 110609Z 10004KT 22/18 A301 RMK A01 T02190175  RH  076%=      5-min Rain = 0
KCO1 110610Z 10004KT 22/18 A301 RMK A01 T02190175  RH  076%=      5-min Rain = 0
KCO1 110611Z 09004KT 22/18 A301 RMK A01 T02190176  RH  076%=      5-min Rain = 0
KCO1 110612Z 08004KT 22/18 A301 RMK A01 T02190175  RH  076%=      5-min Rain = 0
KCO1 110613Z 08004KT 22/18 A301 RMK A01 T02180176  RH  077%=      5-min Rain = 0
KCO1 110614Z 08004KT 22/18 A301 RMK A01 T02180176  RH  077%=      5-min Rain = 0
KCO1 110615Z 07003KT 22/18 A301 RMK A01 T02180176  RH  077%=      5-min Rain = 0
KCO1 110616Z 08003KT 22/18 A301 RMK A01 T02180176  RH  077%=      5-min Rain = 0
KCO1 110617Z 09003KT 22/18 A301 RMK A01 T02180176  RH  077%=      5-min Rain = 0
KCO1 110618Z 08003KT 22/18 A301 RMK A01 T02180176  RH  077%=      5-min Rain = 0
KCO1 110619Z 07003KT 22/18 A301 RMK A01 T02180176  RH  077%=      5-min Rain = 0
KCO1 110620Z 07003KT 22/18 A301 RMK A01 T02180176  RH  077%=      5-min Rain = 0
KCO1 110621Z 07004KT 22/18 A301 RMK A01 T02180177  RH  077%=      5-min Rain = 0
KCO1 110622Z 07004KT 22/18 A301 RMK A01 T02180177  RH  077%=      5-min Rain = 0
KCO1 110623Z 06004KT 22/18 A301 RMK A01 T02170177  RH  078%=      5-min Rain = 0
KCO1 110624Z 05004KT 22/18 A301 RMK A01 T02170177  RH  078%=      5-min Rain = 0
KCO1 110625Z 05004KT 22/18 A301 RMK A01 T02170177  RH  078%=      5-min Rain = 0
KCO1 110626Z 06004KT 22/18 A301 RMK A01 T02170177  RH  078%=      5-min Rain = 0
KCO1 110627Z 06004KT 22/18 A301 RMK A01 T02170177  RH  078%=      5-min Rain = 0
KCO1 110628Z 06004KT 22/18 A301 RMK A01 T02170177  RH  078%=      5-min Rain = 0
KCO1 110629Z 06004KT 22/18 A301 RMK A01 T02170177  RH  078%=      5-min Rain = 0
KCO1 110630Z 06004KT 22/18 A301 RMK A01 T02170177  RH  078%=      5-min Rain = 0
KCO1 110631Z 07003KT 22/18 A301 RMK A01 T02170178  RH  078%=      5-min Rain = 0
KCO1 110632Z 07003KT 22/18 A301 RMK A01 T02170177  RH  078%=      5-min Rain = 0
KCO1 110633Z 07004KT 22/18 A301 RMK A01 T02160177  RH  078%=      5-min Rain = 0
KCO1 110634Z 07004KT 22/18 A301 RMK A01 T02160177  RH  078%=      5-min Rain = 0
KCO1 110635Z 07004KT 22/18 A301 RMK A01 T02160177  RH  078%=      5-min Rain = 0
KCO1 110636Z 07004KT 22/18 A301 RMK A01 T02160177  RH  078%=      5-min Rain = 0
KCO1 110637Z 08004KT 22/18 A301 RMK A01 T02160177  RH  078%=      5-min Rain = 0
KCO1 110638Z 08003KT 22/18 A301 RMK A01 T02160177  RH  078%=      5-min Rain = 0
KCO1 110639Z 08003KT 22/18 A301 RMK A01 T02160177  RH  078%=      5-min Rain = 0
KCO1 110640Z 08003KT 22/18 A301 RMK A01 T02160177  RH  078%=      5-min Rain = 0
KCO1 110641Z 07003KT 22/18 A301 RMK A01 T02160177  RH  078%=      5-min Rain = 0
KCO1 110642Z 08004KT 22/18 A301 RMK A01 T02160177  RH  078%=      5-min Rain = 0
KCO1 110643Z 08004KT 22/18 A301 RMK A01 T02160176  RH  078%=      5-min Rain = 0
KCO1 110644Z 08004KT 22/18 A301 RMK A01 T02160176  RH  078%=      5-min Rain = 0
KCO1 110645Z 08004KT 22/18 A301 RMK A01 T02160176  RH  078%=      5-min Rain = 0
KCO1 110646Z 08004KT 22/18 A301 RMK A01 T02150176  RH  078%=      5-min Rain = 0
KCO1 110647Z 08005KT 22/18 A301 RMK A01 T02150176  RH  078%=      5-min Rain = 0
KCO1 110648Z 08005KT 22/18 A301 RMK A01 T02150177  RH  078%=      5-min Rain = 0
KCO1 110649Z 08005KT 22/18 A301 RMK A01 T02150177  RH  079%=      5-min Rain = 0
KCO1 110650Z 09005KT 22/18 A301 RMK A01 T02150176  RH  079%=      5-min Rain = 0
KCO1 110651Z 09004KT 22/18 A301 RMK A01 T02150176  RH  078%=      5-min Rain = 0
KCO1 110652Z 09004KT 22/18 A301 RMK A01 T02150176  RH  078%=      5-min Rain = 0
KCO1 110653Z 09004KT 22/18 A301 RMK A01 T02150176  RH  078%=      5-min Rain = 0
KCO1 110654Z 09004KT 21/18 A301 RMK A01 T02140175  RH  078%=      5-min Rain = 0
KCO1 110655Z 09004KT 22/18 A301 RMK A01 T02150175  RH  078%=      5-min Rain = 0
KCO1 110656Z 09005KT 22/18 A301 RMK A01 T02150175  RH  078%=      5-min Rain = 0
KCO1 110657Z 10004KT 22/18 A301 RMK A01 T02150175  RH  078%=      5-min Rain = 0
KCO1 110658Z 10004KT 22/18 A301 RMK A01 T02150175  RH  078%=      5-min Rain = 0
KCO1 110659Z 10004KT 22/18 A301 RMK A01 T02150175  RH  078%=      5-min Rain = 0
KCO1 110700Z 10004KT 22/18 A301 RMK A01 T02150175  RH  078%=      5-min Rain = 0
KCO1 110701Z 10004KT 22/18 A301 RMK A01 T02150175  RH  078%=      5-min Rain = 0
KCO1 110702Z 10004KT 22/18 A301 RMK A01 T02150175  RH  078%=      5-min Rain = 0
KCO1 110703Z 10004KT 22/18 A301 RMK A01 T02150175  RH  078%=      5-min Rain = 0
KCO1 110704Z 10004KT 22/18 A301 RMK A01 T02150175  RH  078%=      5-min Rain = 0
KCO1 110705Z 10003KT 22/18 A301 RMK A01 T02150175  RH  078%=      5-min Rain = 0
KCO1 110706Z 09003KT 21/18 A301 RMK A01 T02140175  RH  078%=      5-min Rain = 0
KCO1 110707Z 10003KT 21/18 A301 RMK A01 T02140175  RH  078%=      5-min Rain = 0
KCO1 110708Z 10003KT 21/18 A301 RMK A01 T02140175  RH  078%=      5-min Rain = 0
KCO1 110709Z 10003KT 21/18 A301 RMK A01 T02140175  RH  079%=      5-min Rain = 0
KCO1 110710Z 10003KT 21/18 A301 RMK A01 T02130175  RH  079%=      5-min Rain = 0
KCO1 110711Z 10003KT 21/18 A301 RMK A01 T02130175  RH  079%=      5-min Rain = 0
KCO1 110712Z 10003KT 21/17 A301 RMK A01 T02120174  RH  079%=      5-min Rain = 0
KCO1 110713Z 10004KT 21/17 A301 RMK A01 T02120174  RH  079%=      5-min Rain = 0
KCO1 110714Z 09004KT 21/17 A301 RMK A01 T02120174  RH  079%=      5-min Rain = 0
KCO1 110715Z 09004KT 21/17 A301 RMK A01 T02120174  RH  079%=      5-min Rain = 0
KCO1 110716Z 10005KT 21/17 A301 RMK A01 T02120174  RH  079%=      5-min Rain = 0
KCO1 110717Z 10004KT 21/17 A301 RMK A01 T02120174  RH  079%=      5-min Rain = 0
KCO1 110718Z 10004KT 21/17 A301 RMK A01 T02120173  RH  078%=      5-min Rain = 0
KCO1 110719Z 10004KT 21/17 A301 RMK A01 T02120173  RH  078%=      5-min Rain = 0
KCO1 110720Z 10004KT 21/17 A301 RMK A01 T02120173  RH  078%=      5-min Rain = 0
KCO1 110721Z 10005KT 21/17 A301 RMK A01 T02120173  RH  078%=      5-min Rain = 0
KCO1 110722Z 10005KT 21/17 A3009 RMK A01 T02120173  RH  078%=      5-min Rain = 0
KCO1 110723Z 10005KT 21/17 A3009 RMK A01 T02120173  RH  078%=      5-min Rain = 0
KCO1 110724Z 10005KT 21/17 A3009 RMK A01 T02120173  RH  078%=      5-min Rain = 0
KCO1 110725Z 10005KT 21/17 A3009 RMK A01 T02120173  RH  079%=      5-min Rain = 0
KCO1 110726Z 10005KT 21/17 A3009 RMK A01 T02120173  RH  079%=      5-min Rain = 0
KCO1 110727Z 10005KT 21/17 A3009 RMK A01 T02120173  RH  079%=      5-min Rain = 0
KCO1 110728Z 10005KT 21/17 A3009 RMK A01 T02120173  RH  079%=      5-min Rain = 0
KCO1 110729Z 10004KT 21/17 A3009 RMK A01 T02120173  RH  079%=      5-min Rain = 0
KCO1 110730Z 11004KT 21/17 A3009 RMK A01 T02120173  RH  079%=      5-min Rain = 0
KCO1 110731Z 11004KT 21/17 A3009 RMK A01 T02120174  RH  079%=      5-min Rain = 0
KCO1 110732Z 10004KT 21/17 A3009 RMK A01 T02120174  RH  079%=      5-min Rain = 0
KCO1 110733Z 11004KT 21/17 A3009 RMK A01 T02120174  RH  079%=      5-min Rain = 0
KCO1 110734Z 11004KT 21/17 A3009 RMK A01 T02110174  RH  079%=      5-min Rain = 0
KCO1 110735Z 11004KT 21/17 A3009 RMK A01 T02120174  RH  079%=      5-min Rain = 0
KCO1 110736Z 12004KT 21/18 A3009 RMK A01 T02120175  RH  079%=      5-min Rain = 0
KCO1 110737Z 12004KT 21/18 A3009 RMK A01 T02110175  RH  079%=      5-min Rain = 0
KCO1 110738Z 12003KT 21/17 A3009 RMK A01 T02110174  RH  080%=      5-min Rain = 0
KCO1 110739Z 12004KT 21/18 A3009 RMK A01 T02110175  RH  080%=      5-min Rain = 0
KCO1 110740Z 12004KT 21/18 A3009 RMK A01 T02110175  RH  080%=      5-min Rain = 0
KCO1 110741Z 12003KT 21/17 A3009 RMK A01 T02100174  RH  080%=      5-min Rain = 0
KCO1 110742Z 12003KT 21/18 A3009 RMK A01 T02100175  RH  080%=      5-min Rain = 0
KCO1 110743Z 12004KT 21/18 A3009 RMK A01 T02100175  RH  080%=      5-min Rain = 0
KCO1 110744Z 12004KT 21/18 A3009 RMK A01 T02100175  RH  080%=      5-min Rain = 0
KCO1 110745Z 12004KT 21/18 A3009 RMK A01 T02100175  RH  080%=      5-min Rain = 0
KCO1 110746Z 12004KT 21/18 A3009 RMK A01 T02100175  RH  080%=      5-min Rain = 0
KCO1 110747Z 12003KT 21/17 A3009 RMK A01 T02090174  RH  080%=      5-min Rain = 0
KCO1 110748Z 12004KT 21/18 A3009 RMK A01 T02090175  RH  080%=      5-min Rain = 0
KCO1 110749Z 13003KT 21/18 A3009 RMK A01 T02090175  RH  080%=      5-min Rain = 0
KCO1 110750Z 14003KT 21/17 A3009 RMK A01 T02090174  RH  080%=      5-min Rain = 0
KCO1 110751Z 14003KT 21/17 A3009 RMK A01 T02090174  RH  080%=      5-min Rain = 0
KCO1 110752Z 14003KT 21/17 A3009 RMK A01 T02080174  RH  080%=      5-min Rain = 0
KCO1 110753Z 14003KT 21/17 A3009 RMK A01 T02080174  RH  081%=      5-min Rain = 0
KCO1 110754Z 14004KT 21/17 A3009 RMK A01 T02080173  RH  081%=      5-min Rain = 0
KCO1 110755Z 14004KT 21/17 A3009 RMK A01 T02070173  RH  081%=      5-min Rain = 0
KCO1 110756Z 14004KT 21/17 A3009 RMK A01 T02070173  RH  081%=      5-min Rain = 0
KCO1 110757Z 14004KT 21/17 A3009 RMK A01 T02070173  RH  081%=      5-min Rain = 0
KCO1 110758Z 14003KT 21/17 A3009 RMK A01 T02070173  RH  081%=      5-min Rain = 0
KCO1 110759Z 14003KT 21/17 A3009 RMK A01 T02070173  RH  081%=      5-min Rain = 0
KCO1 110800Z 15003KT 21/17 A3009 RMK A01 T02070173  RH  081%=      5-min Rain = 0
KCO1 110801Z 16003KT 21/17 A3009 RMK A01 T02070173  RH  081%=      5-min Rain = 0
KCO1 110802Z 16002KT 21/17 A3009 RMK A01 T02060173  RH  081%=      5-min Rain = 0
KCO1 110803Z 16003KT 21/17 A3009 RMK A01 T02060173  RH  081%=      5-min Rain = 0
KCO1 110804Z 16003KT 21/17 A3009 RMK A01 T02060172  RH  081%=      5-min Rain = 0
KCO1 110805Z 16003KT 21/17 A3009 RMK A01 T02060173  RH  081%=      5-min Rain = 0
KCO1 110806Z 16003KT 21/17 A3009 RMK A01 T02060173  RH  081%=      5-min Rain = 0
KCO1 110807Z 15003KT 21/17 A3009 RMK A01 T02060173  RH  081%=      5-min Rain = 0
KCO1 110808Z 15003KT 21/17 A3009 RMK A01 T02050172  RH  081%=      5-min Rain = 0
KCO1 110809Z 15003KT 20/17 A3009 RMK A01 T02040172  RH  081%=      5-min Rain = 0
KCO1 110810Z 14003KT 20/17 A3009 RMK A01 T02040172  RH  082%=      5-min Rain = 0
KCO1 110811Z 14003KT 20/17 A3009 RMK A01 T02040172  RH  082%=      5-min Rain = 0
KCO1 110812Z 13004KT 20/17 A3009 RMK A01 T02030171  RH  082%=      5-min Rain = 0
KCO1 110813Z 13004KT 20/17 A3009 RMK A01 T02020171  RH  082%=      5-min Rain = 0
KCO1 110814Z 12004KT 20/17 A3009 RMK A01 T02020172  RH  083%=      5-min Rain = 0
KCO1 110815Z 12004KT 20/17 A3009 RMK A01 T02020172  RH  083%=      5-min Rain = 0
KCO1 110816Z 12004KT 20/17 A3009 RMK A01 T02020172  RH  083%=      5-min Rain = 0
KCO1 110817Z 12004KT 20/17 A3009 RMK A01 T02020172  RH  083%=      5-min Rain = 0
KCO1 110818Z 12004KT 20/17 A3009 RMK A01 T02020172  RH  083%=      5-min Rain = 0
KCO1 110819Z 12004KT 20/17 A3009 RMK A01 T02020172  RH  083%=      5-min Rain = 0
KCO1 110820Z 12004KT 20/17 A3009 RMK A01 T02020172  RH  083%=      5-min Rain = 0
KCO1 110821Z 12004KT 20/17 A3009 RMK A01 T02020172  RH  083%=      5-min Rain = 0
KCO1 110822Z 12004KT 20/17 A3009 RMK A01 T02030173  RH  083%=      5-min Rain = 0
KCO1 110823Z 12004KT 20/17 A3009 RMK A01 T02030173  RH  083%=      5-min Rain = 0
KCO1 110824Z 12005KT 20/17 A3009 RMK A01 T02030173  RH  083%=      5-min Rain = 0
KCO1 110825Z 12005KT 20/17 A3009 RMK A01 T02030173  RH  083%=      5-min Rain = 0
KCO1 110826Z 12005KT 20/17 A3008 RMK A01 T02030173  RH  083%=      5-min Rain = 0
KCO1 110827Z 12005KT 20/17 A3008 RMK A01 T02030173  RH  083%=      5-min Rain = 0
KCO1 110828Z 12005KT 20/17 A3008 RMK A01 T02020173  RH  083%=      5-min Rain = 0
KCO1 110829Z 12005KT 20/17 A3008 RMK A01 T02030174  RH  083%=      5-min Rain = 0
KCO1 110830Z 12005KT 20/17 A3008 RMK A01 T02020173  RH  083%=      5-min Rain = 0
KCO1 110831Z 12005KT 20/17 A3008 RMK A01 T02020173  RH  084%=      5-min Rain = 0
KCO1 110832Z 12005KT 20/17 A3008 RMK A01 T02020174  RH  084%=      5-min Rain = 0
KCO1 110833Z 12005KT 20/17 A3008 RMK A01 T02020174  RH  084%=      5-min Rain = 0
KCO1 110834Z 12004KT 20/17 A3008 RMK A01 T02020174  RH  084%=      5-min Rain = 0
KCO1 110835Z 11004KT 20/17 A3008 RMK A01 T02020174  RH  084%=      5-min Rain = 0
KCO1 110836Z 11005KT 20/17 A3008 RMK A01 T02020174  RH  084%=      5-min Rain = 0
KCO1 110837Z 11004KT 20/17 A3008 RMK A01 T02020174  RH  084%=      5-min Rain = 0
KCO1 110838Z 12004KT 20/17 A3008 RMK A01 T02020174  RH  084%=      5-min Rain = 0
KCO1 110839Z 12004KT 20/17 A3008 RMK A01 T02020174  RH  084%=      5-min Rain = 0
KCO1 110840Z 12004KT 20/17 A3008 RMK A01 T02010174  RH  084%=      5-min Rain = 0
KCO1 110841Z 11005KT 20/17 A3008 RMK A01 T02020174  RH  084%=      5-min Rain = 0
KCO1 110842Z 11005KT 20/17 A3008 RMK A01 T02010174  RH  084%=      5-min Rain = 0
KCO1 110843Z 11005KT 20/17 A3008 RMK A01 T02010174  RH  084%=      5-min Rain = 0
KCO1 110844Z 11005KT 20/17 A3008 RMK A01 T02010174  RH  084%=      5-min Rain = 0
KCO1 110845Z 11005KT 20/17 A3008 RMK A01 T02010174  RH  084%=      5-min Rain = 0
KCO1 110846Z 11005KT 20/17 A3008 RMK A01 T02010174  RH  084%=      5-min Rain = 0
KCO1 110847Z 11005KT 20/17 A3008 RMK A01 T02010174  RH  084%=      5-min Rain = 0
KCO1 110848Z 11005KT 20/17 A3008 RMK A01 T02010173  RH  084%=      5-min Rain = 0
KCO1 110849Z 11005KT 20/17 A3008 RMK A01 T02010173  RH  084%=      5-min Rain = 0
KCO1 110850Z 11005KT 20/17 A3008 RMK A01 T02010174  RH  084%=      5-min Rain = 0
KCO1 110851Z 11006KT 20/17 A3008 RMK A01 T02010173  RH  084%=      5-min Rain = 0
KCO1 110852Z 11005KT 20/17 A3008 RMK A01 T02010173  RH  084%=      5-min Rain = 0
KCO1 110853Z 11005KT 20/17 A3008 RMK A01 T02010173  RH  084%=      5-min Rain = 0
KCO1 110854Z 11005KT 20/17 A3008 RMK A01 T02000173  RH  084%=      5-min Rain = 0
KCO1 110855Z 11005KT 20/17 A3008 RMK A01 T02000173  RH  084%=      5-min Rain = 0
KCO1 110856Z 12005KT 20/17 A3008 RMK A01 T02000173  RH  084%=      5-min Rain = 0
KCO1 110857Z 12005KT 20/17 A3008 RMK A01 T02000173  RH  084%=      5-min Rain = 0
KCO1 110858Z 11005KT 20/17 A3008 RMK A01 T02000173  RH  084%=      5-min Rain = 0
KCO1 110859Z 11005KT 20/17 A3008 RMK A01 T02000173  RH  084%=      5-min Rain = 0
KCO1 110900Z 11006KT 20/17 A3008 RMK A01 T01990172  RH  085%=      5-min Rain = 0
KCO1 110901Z 12006KT 20/17 A3008 RMK A01 T01990173  RH  085%=      5-min Rain = 0
KCO1 110902Z 11005KT 20/17 A3007 RMK A01 T01990173  RH  085%=      5-min Rain = 0
KCO1 110903Z 11006KT 20/17 A3007 RMK A01 T01990173  RH  085%=      5-min Rain = 0
KCO1 110904Z 11006KT 20/17 A3007 RMK A01 T01990173  RH  085%=      5-min Rain = 0
KCO1 110905Z 11006KT 20/17 A3007 RMK A01 T01990173  RH  085%=      5-min Rain = 0
KCO1 110906Z 12006KT 20/17 A3007 RMK A01 T01990173  RH  085%=      5-min Rain = 0
KCO1 110907Z 12006KT 20/17 A3007 RMK A01 T01990173  RH  085%=      5-min Rain = 0
KCO1 110908Z 12006KT 20/17 A3007 RMK A01 T02000174  RH  085%=      5-min Rain = 0
KCO1 110909Z 12007KT 20/17 A3007 RMK A01 T02000174  RH  085%=      5-min Rain = 0
KCO1 110910Z 12007KT 20/17 A3007 RMK A01 T02010174  RH  085%=      5-min Rain = 0
KCO1 110911Z 12006KT 20/17 A3007 RMK A01 T02010174  RH  084%=      5-min Rain = 0
KCO1 110912Z 12006KT 20/17 A3007 RMK A01 T02020174  RH  084%=      5-min Rain = 0
KCO1 110913Z 13006KT 20/17 A3007 RMK A01 T02020174  RH  084%=      5-min Rain = 0
KCO1 110914Z 13006KT 20/17 A3007 RMK A01 T02020174  RH  084%=      5-min Rain = 0
KCO1 110915Z 13006KT 20/17 A3007 RMK A01 T02020174  RH  084%=      5-min Rain = 0
KCO1 110916Z 13006KT 20/17 A3007 RMK A01 T02020174  RH  084%=      5-min Rain = 0
KCO1 110917Z 13007KT 20/17 A3007 RMK A01 T02020174  RH  084%=      5-min Rain = 0
KCO1 110918Z 12007KT 20/17 A3007 RMK A01 T02020174  RH  084%=      5-min Rain = 0
KCO1 110919Z 12007KT 20/17 A3007 RMK A01 T02030174  RH  084%=      5-min Rain = 0
KCO1 110920Z 13007KT 20/17 A3007 RMK A01 T02030174  RH  083%=      5-min Rain = 0
KCO1 110921Z 12006KT 20/18 A3007 RMK A01 T02040175  RH  083%=      5-min Rain = 0
KCO1 110922Z 13006KT 20/17 A3007 RMK A01 T02040174  RH  083%=      5-min Rain = 0
KCO1 110923Z 13006KT 20/17 A3007 RMK A01 T02040174  RH  083%=      5-min Rain = 0
KCO1 110924Z 13006KT 21/17 A3007 RMK A01 T02050174  RH  083%=      5-min Rain = 0
KCO1 110925Z 13006KT 21/17 A3007 RMK A01 T02050174  RH  083%=      5-min Rain = 0
KCO1 110926Z 13006KT 21/17 A3007 RMK A01 T02050174  RH  083%=      5-min Rain = 0
KCO1 110927Z 13006KT 21/17 A3007 RMK A01 T02050174  RH  082%=      5-min Rain = 0
KCO1 110928Z 13006KT 21/17 A3007 RMK A01 T02050174  RH  082%=      5-min Rain = 0
KCO1 110929Z 13006KT 21/17 A3007 RMK A01 T02050174  RH  082%=      5-min Rain = 0
KCO1 110930Z 13006KT 21/17 A3007 RMK A01 T02050173  RH  082%=      5-min Rain = 0
KCO1 110931Z 13007KT 21/17 A3007 RMK A01 T02050173  RH  082%=      5-min Rain = 0
KCO1 110932Z 13005KT 21/17 A3007 RMK A01 T02050173  RH  082%=      5-min Rain = 0
KCO1 110933Z 14005KT 21/17 A3007 RMK A01 T02050172  RH  082%=      5-min Rain = 0
KCO1 110934Z 13006KT 21/17 A3007 RMK A01 T02050172  RH  082%=      5-min Rain = 0
KCO1 110935Z 13006KT 21/17 A3007 RMK A01 T02050172  RH  081%=      5-min Rain = 0
KCO1 110936Z 13005KT 21/17 A3007 RMK A01 T02050172  RH  081%=      5-min Rain = 0
KCO1 110937Z 14005KT 21/17 A3007 RMK A01 T02050171  RH  081%=      5-min Rain = 0
KCO1 110938Z 14005KT 21/17 A3007 RMK A01 T02050171  RH  081%=      5-min Rain = 0
KCO1 110939Z 14006KT 21/17 A3007 RMK A01 T02050171  RH  081%=      5-min Rain = 0
KCO1 110940Z 14005KT 21/17 A3007 RMK A01 T02050170  RH  080%=      5-min Rain = 0
KCO1 110941Z 14004KT 21/17 A3007 RMK A01 T02050170  RH  080%=      5-min Rain = 0
KCO1 110942Z 14005KT 21/17 A3007 RMK A01 T02050170  RH  080%=      5-min Rain = 0
KCO1 110943Z 14005KT 21/17 A3007 RMK A01 T02050170  RH  080%=      5-min Rain = 0
KCO1 110944Z 13006KT 20/17 A3007 RMK A01 T02040169  RH  080%=      5-min Rain = 0
KCO1 110945Z 13005KT 20/17 A3007 RMK A01 T02040169  RH  080%=      5-min Rain = 0
KCO1 110946Z 13005KT 20/17 A3007 RMK A01 T02040169  RH  080%=      5-min Rain = 0
KCO1 110947Z 13006KT 20/17 A3007 RMK A01 T02040169  RH  081%=      5-min Rain = 0
KCO1 110948Z 13006KT 20/17 A3007 RMK A01 T02030169  RH  080%=      5-min Rain = 0
KCO1 110949Z 13006KT 20/17 A3007 RMK A01 T02030169  RH  080%=      5-min Rain = 0
KCO1 110950Z 13006KT 20/17 A3007 RMK A01 T02030168  RH  080%=      5-min Rain = 0
KCO1 110951Z 13006KT 20/17 A3007 RMK A01 T02040169  RH  080%=      5-min Rain = 0
KCO1 110952Z 13006KT 20/17 A3007 RMK A01 T02030168  RH  080%=      5-min Rain = 0
KCO1 110953Z 13005KT 20/17 A3007 RMK A01 T02030168  RH  080%=      5-min Rain = 0
KCO1 110954Z 13005KT 20/17 A3007 RMK A01 T02030168  RH  080%=      5-min Rain = 0
KCO1 110955Z 13005KT 20/17 A3007 RMK A01 T02030168  RH  080%=      5-min Rain = 0
KCO1 110956Z 13005KT 20/17 A3007 RMK A01 T02030168  RH  080%=      5-min Rain = 0
KCO1 110957Z 13005KT 20/17 A3007 RMK A01 T02020168  RH  081%=      5-min Rain = 0
KCO1 110958Z 13005KT 20/17 A3007 RMK A01 T02020168  RH  081%=      5-min Rain = 0
KCO1 110959Z 13005KT 20/17 A3007 RMK A01 T02020168  RH  081%=      5-min Rain = 0
KCO1 111000Z 12005KT 20/17 A3007 RMK A01 T02020167  RH  081%=      5-min Rain = 0
KCO1 111001Z 12005KT 20/17 A3007 RMK A01 T02010167  RH  081%=      5-min Rain = 0
KCO1 111002Z 12006KT 20/17 A3007 RMK A01 T02010167  RH  081%=      5-min Rain = 0
KCO1 111003Z 12005KT 20/17 A3007 RMK A01 T02010167  RH  081%=      5-min Rain = 0
KCO1 111004Z 12005KT 20/17 A3007 RMK A01 T02010167  RH  081%=      5-min Rain = 0
KCO1 111005Z 12005KT 20/17 A3007 RMK A01 T02010167  RH  081%=      5-min Rain = 0
KCO1 111006Z 12006KT 20/17 A3007 RMK A01 T02010167  RH  080%=      5-min Rain = 0
KCO1 111007Z 12005KT 20/17 A3007 RMK A01 T02010166  RH  080%=      5-min Rain = 0
KCO1 111008Z 13005KT 20/17 A3007 RMK A01 T02010166  RH  080%=      5-min Rain = 0
KCO1 111009Z 13005KT 20/17 A3008 RMK A01 T02010166  RH  080%=      5-min Rain = 0
KCO1 111010Z 13005KT 20/17 A3008 RMK A01 T02020166  RH  080%=      5-min Rain = 0
KCO1 111011Z 13005KT 20/17 A3008 RMK A01 T02010166  RH  080%=      5-min Rain = 0
KCO1 111012Z 13005KT 20/17 A3008 RMK A01 T02010166  RH  080%=      5-min Rain = 0
KCO1 111013Z 13006KT 20/17 A3008 RMK A01 T02010166  RH  080%=      5-min Rain = 0
KCO1 111014Z 13006KT 20/17 A3008 RMK A01 T02010165  RH  080%=      5-min Rain = 0
KCO1 111015Z 13005KT 20/17 A3008 RMK A01 T02010165  RH  080%=      5-min Rain = 0
KCO1 111016Z 13005KT 20/17 A3008 RMK A01 T02010165  RH  080%=      5-min Rain = 0
KCO1 111017Z 12005KT 20/17 A3008 RMK A01 T02010165  RH  080%=      5-min Rain = 0
KCO1 111018Z 12005KT 20/17 A3008 RMK A01 T02010165  RH  080%=      5-min Rain = 0
KCO1 111019Z 12005KT 20/17 A3008 RMK A01 T02010166  RH  080%=      5-min Rain = 0
KCO1 111020Z 12005KT 20/17 A3008 RMK A01 T02000165  RH  080%=      5-min Rain = 0
KCO1 111021Z 13005KT 20/17 A3008 RMK A01 T02000165  RH  080%=      5-min Rain = 0
KCO1 111022Z 12005KT 20/17 A3008 RMK A01 T02000165  RH  080%=      5-min Rain = 0
KCO1 111023Z 13005KT 20/17 A3008 RMK A01 T01990165  RH  081%=      5-min Rain = 0
KCO1 111024Z 12006KT 20/17 A3008 RMK A01 T01990165  RH  081%=      5-min Rain = 0
KCO1 111025Z 13006KT 20/17 A3008 RMK A01 T01990165  RH  081%=      5-min Rain = 0
KCO1 111026Z 13006KT 20/17 A3008 RMK A01 T01990165  RH  081%=      5-min Rain = 0
KCO1 111027Z 12006KT 20/17 A3008 RMK A01 T01990165  RH  081%=      5-min Rain = 0
KCO1 111028Z 13006KT 20/17 A3008 RMK A01 T01990165  RH  081%=      5-min Rain = 0
KCO1 111029Z 13006KT 20/17 A3008 RMK A01 T01990165  RH  081%=      5-min Rain = 0
KCO1 111030Z 13006KT 20/16 A3008 RMK A01 T01980164  RH  081%=      5-min Rain = 0
KCO1 111031Z 13006KT 20/16 A3008 RMK A01 T01980164  RH  081%=      5-min Rain = 0
KCO1 111032Z 12006KT 20/16 A3008 RMK A01 T01980164  RH  081%=      5-min Rain = 0
KCO1 111033Z 13006KT 20/16 A3008 RMK A01 T01980164  RH  081%=      5-min Rain = 0
KCO1 111034Z 13005KT 20/16 A3008 RMK A01 T01990164  RH  081%=      5-min Rain = 0
KCO1 111035Z 13006KT 20/16 A3008 RMK A01 T01980164  RH  081%=      5-min Rain = 0
KCO1 111036Z 12005KT 20/16 A3008 RMK A01 T01980164  RH  080%=      5-min Rain = 0
KCO1 111037Z 12005KT 20/16 A3008 RMK A01 T01990164  RH  080%=      5-min Rain = 0
KCO1 111038Z 12005KT 20/16 A3008 RMK A01 T01990164  RH  080%=      5-min Rain = 0
KCO1 111039Z 12005KT 20/16 A3008 RMK A01 T01990164  RH  080%=      5-min Rain = 0
KCO1 111040Z 12006KT 20/16 A3008 RMK A01 T01990164  RH  080%=      5-min Rain = 0
KCO1 111041Z 12005KT 20/16 A3008 RMK A01 T01990164  RH  080%=      5-min Rain = 0
KCO1 111042Z 12006KT 20/16 A3008 RMK A01 T01990164  RH  080%=      5-min Rain = 0
KCO1 111043Z 13006KT 20/16 A3008 RMK A01 T01990164  RH  080%=      5-min Rain = 0
KCO1 111044Z 13005KT 20/16 A3008 RMK A01 T01990164  RH  080%=      5-min Rain = 0
KCO1 111045Z 13006KT 20/16 A3008 RMK A01 T01990164  RH  080%=      5-min Rain = 0
KCO1 111046Z 14006KT 20/16 A3008 RMK A01 T01990164  RH  080%=      5-min Rain = 0
KCO1 111047Z 13006KT 20/16 A3008 RMK A01 T01990164  RH  080%=      5-min Rain = 0
KCO1 111048Z 13006KT 20/16 A3008 RMK A01 T01980164  RH  080%=      5-min Rain = 0
KCO1 111049Z 13006KT 20/16 A3008 RMK A01 T01980164  RH  080%=      5-min Rain = 0
KCO1 111050Z 13005KT 20/16 A3008 RMK A01 T01990164  RH  080%=      5-min Rain = 0
KCO1 111051Z 13006KT 20/16 A3008 RMK A01 T01980164  RH  080%=      5-min Rain = 0
KCO1 111052Z 13006KT 20/16 A3008 RMK A01 T01990164  RH  080%=      5-min Rain = 0
KCO1 111053Z 12006KT 20/16 A3008 RMK A01 T01980164  RH  080%=      5-min Rain = 0
KCO1 111054Z 13006KT 20/16 A3008 RMK A01 T01980163  RH  080%=      5-min Rain = 0
KCO1 111055Z 13006KT 20/16 A3008 RMK A01 T01980164  RH  080%=      5-min Rain = 0
KCO1 111056Z 13006KT 20/16 A3008 RMK A01 T01980164  RH  080%=      5-min Rain = 0
KCO1 111057Z 13006KT 20/16 A3008 RMK A01 T01980163  RH  080%=      5-min Rain = 0
KCO1 111058Z 12006KT 20/16 A3008 RMK A01 T01980163  RH  080%=      5-min Rain = 0
KCO1 111059Z 12005KT 20/16 A3008 RMK A01 T01980163  RH  080%=      5-min Rain = 0
KCO1 111100Z 12006KT 20/16 A3008 RMK A01 T01980163  RH  080%=      5-min Rain = 0
KCO1 111101Z 12006KT 20/16 A3008 RMK A01 T01970163  RH  080%=      5-min Rain = 0
KCO1 111102Z 12006KT 20/16 A3008 RMK A01 T01970163  RH  080%=      5-min Rain = 0
KCO1 111103Z 12006KT 20/16 A3008 RMK A01 T01970163  RH  080%=      5-min Rain = 0
KCO1 111104Z 13006KT 20/16 A3008 RMK A01 T01970162  RH  080%=      5-min Rain = 0
KCO1 111105Z 13007KT 20/16 A3008 RMK A01 T01970162  RH  080%=      5-min Rain = 0
KCO1 111106Z 13007KT 20/16 A3008 RMK A01 T01970162  RH  080%=      5-min Rain = 0
KCO1 111107Z 12007KT 20/16 A3008 RMK A01 T01970162  RH  080%=      5-min Rain = 0
KCO1 111108Z 12007KT 20/16 A3008 RMK A01 T01960162  RH  080%=      5-min Rain = 0
KCO1 111109Z 12007KT 20/16 A3008 RMK A01 T01970162  RH  080%=      5-min Rain = 0
KCO1 111110Z 13007KT 20/16 A3008 RMK A01 T01970162  RH  080%=      5-min Rain = 0
KCO1 111111Z 13007KT 20/16 A3008 RMK A01 T01960162  RH  080%=      5-min Rain = 0
KCO1 111112Z 12007KT 20/16 A3008 RMK A01 T01970162  RH  080%=      5-min Rain = 0
KCO1 111113Z 12006KT 20/16 A3008 RMK A01 T01960161  RH  080%=      5-min Rain = 0
KCO1 111114Z 12006KT 20/16 A3008 RMK A01 T01970162  RH  080%=      5-min Rain = 0
KCO1 111115Z 13006KT 20/16 A3008 RMK A01 T01970162  RH  080%=      5-min Rain = 0
KCO1 111116Z 13007KT 20/16 A3008 RMK A01 T01970162  RH  080%=      5-min Rain = 0
KCO1 111117Z 13006KT 20/16 A3008 RMK A01 T01970162  RH  080%=      5-min Rain = 0
KCO1 111118Z 13007KT 20/16 A3009 RMK A01 T01970162  RH  080%=      5-min Rain = 0
KCO1 111119Z 13007KT 20/16 A3008 RMK A01 T01960161  RH  080%=      5-min Rain = 0
KCO1 111120Z 13007KT 20/16 A3008 RMK A01 T01970161  RH  080%=      5-min Rain = 0
KCO1 111121Z 13007KT 20/16 A3008 RMK A01 T01970160  RH  079%=      5-min Rain = 0
KCO1 111122Z 13008KT 20/16 A3009 RMK A01 T01970160  RH  079%=      5-min Rain = 0
KCO1 111123Z 13008KT 20/16 A3009 RMK A01 T01980159  RH  078%=      5-min Rain = 0
KCO1 111124Z 13009KT 20/16 A3009 RMK A01 T01990159  RH  078%=      5-min Rain = 0
KCO1 111125Z 13009KT 20/16 A3009 RMK A01 T02000159  RH  077%=      5-min Rain = 0
KCO1 111126Z 13009KT 20/16 A3009 RMK A01 T02000158  RH  077%=      5-min Rain = 0
KCO1 111127Z 13009KT 20/16 A3009 RMK A01 T02020158  RH  076%=      5-min Rain = 0
KCO1 111128Z 13009KT 20/16 A3009 RMK A01 T02030158  RH  075%=      5-min Rain = 0
KCO1 111129Z 13008KT 20/16 A3009 RMK A01 T02040158  RH  075%=      5-min Rain = 0
KCO1 111130Z 13008KT 20/16 A3009 RMK A01 T02040158  RH  075%=      5-min Rain = 0
KCO1 111131Z 13009KT 20/16 A3009 RMK A01 T02040159  RH  075%=      5-min Rain = 0
KCO1 111132Z 13008KT 20/16 A3009 RMK A01 T02040159  RH  075%=      5-min Rain = 0
KCO1 111133Z 13009KT 20/16 A3009 RMK A01 T02030159  RH  075%=      5-min Rain = 0
KCO1 111134Z 13009KT 20/16 A3009 RMK A01 T02030159  RH  075%=      5-min Rain = 0
KCO1 111135Z 13009KT 20/16 A3009 RMK A01 T02030159  RH  076%=      5-min Rain = 0
KCO1 111136Z 14009KT 20/16 A3009 RMK A01 T02030158  RH  076%=      5-min Rain = 0
KCO1 111137Z 14009KT 20/16 A3009 RMK A01 T02030158  RH  075%=      5-min Rain = 0
KCO1 111138Z 14009KT 20/16 A3009 RMK A01 T02030158  RH  075%=      5-min Rain = 0
KCO1 111139Z 13008KT 20/16 A3009 RMK A01 T02030158  RH  075%=      5-min Rain = 0
KCO1 111140Z 13009KT 20/16 A3009 RMK A01 T02030158  RH  075%=      5-min Rain = 0
KCO1 111141Z 13009KT 20/16 A3009 RMK A01 T02030158  RH  075%=      5-min Rain = 0
KCO1 111142Z 13010KT 20/16 A3009 RMK A01 T02030158  RH  075%=      5-min Rain = 0
KCO1 111143Z 14009KT 20/16 A3008 RMK A01 T02030158  RH  075%=      5-min Rain = 0
KCO1 111144Z 14009KT 20/16 A3008 RMK A01 T02030158  RH  075%=      5-min Rain = 0
KCO1 111145Z 14010KT 20/16 A3008 RMK A01 T02020157  RH  075%=      5-min Rain = 0
KCO1 111146Z 14009KT 20/16 A3009 RMK A01 T02030157  RH  075%=      5-min Rain = 0
KCO1 111147Z 14008KT 20/16 A3009 RMK A01 T02030157  RH  075%=      5-min Rain = 0
KCO1 111148Z 14009KT 20/16 A3009 RMK A01 T02030158  RH  075%=      5-min Rain = 0
KCO1 111149Z 14008KT 20/16 A3009 RMK A01 T02020158  RH  076%=      5-min Rain = 0
KCO1 111150Z 14009KT 20/16 A3009 RMK A01 T02010157  RH  076%=      5-min Rain = 0
KCO1 111151Z 14008KT 20/16 A3009 RMK A01 T02010157  RH  076%=      5-min Rain = 0
KCO1 111152Z 14009KT 20/16 A3009 RMK A01 T02010158  RH  076%=      5-min Rain = 0
KCO1 111153Z 14008KT 20/16 A3009 RMK A01 T02010158  RH  076%=      5-min Rain = 0
KCO1 111154Z 14008KT 20/16 A3009 RMK A01 T02000158  RH  076%=      5-min Rain = 0
KCO1 111155Z 14009KT 20/16 A3009 RMK A01 T02000158  RH  077%=      5-min Rain = 0
KCO1 111156Z 14010KT 20/16 A3009 RMK A01 T01990158  RH  077%=      5-min Rain = 0
KCO1 111157Z 14009KT 20/16 A3009 RMK A01 T01990157  RH  077%=      5-min Rain = 0
KCO1 111158Z 14008KT 20/16 A3009 RMK A01 T01990158  RH  077%=      5-min Rain = 0
KCO1 111159Z 14009KT 20/16 A3009 RMK A01 T01990158  RH  077%=      5-min Rain = 0
KCO1 111200Z 14008KT 20/16 A3009 RMK A01 T01990158  RH  077%=      5-min Rain = 0
KCO1 111201Z 14008KT 20/16 A3009 RMK A01 T01990158  RH  078%=      5-min Rain = 0
KCO1 111202Z 14007KT 20/16 A3009 RMK A01 T01980158  RH  078%=      5-min Rain = 0
KCO1 111203Z 14007KT 20/16 A3009 RMK A01 T01980158  RH  078%=      5-min Rain = 0
KCO1 111204Z 14007KT 20/16 A3009 RMK A01 T01970158  RH  078%=      5-min Rain = 0
KCO1 111205Z 14008KT 20/16 A3009 RMK A01 T01970158  RH  078%=      5-min Rain = 0
KCO1 111206Z 13007KT 20/16 A3009 RMK A01 T01970159  RH  078%=      5-min Rain = 0
KCO1 111207Z 13007KT 20/16 A3009 RMK A01 T01970159  RH  079%=      5-min Rain = 0
KCO1 111208Z 14007KT 20/16 A3009 RMK A01 T01960159  RH  079%=      5-min Rain = 0
KCO1 111209Z 14007KT 20/16 A3009 RMK A01 T01960158  RH  079%=      5-min Rain = 0
KCO1 111210Z 14007KT 20/16 A3009 RMK A01 T01960159  RH  079%=      5-min Rain = 0
KCO1 111211Z 14008KT 20/16 A3009 RMK A01 T01960158  RH  079%=      5-min Rain = 0
KCO1 111212Z 13008KT 20/16 A3009 RMK A01 T01960158  RH  079%=      5-min Rain = 0
KCO1 111213Z 13008KT 20/16 A3009 RMK A01 T01960158  RH  079%=      5-min Rain = 0
KCO1 111214Z 13008KT 20/16 A3009 RMK A01 T01960158  RH  079%=      5-min Rain = 0
KCO1 111215Z 13007KT 20/16 A3009 RMK A01 T01950158  RH  079%=      5-min Rain = 0
KCO1 111216Z 13008KT 20/16 A3009 RMK A01 T01960159  RH  079%=      5-min Rain = 0
KCO1 111217Z 13008KT 20/16 A3009 RMK A01 T01950159  RH  079%=      5-min Rain = 0
KCO1 111218Z 13007KT 20/16 A3009 RMK A01 T01950159  RH  079%=      5-min Rain = 0
KCO1 111219Z 13007KT 20/16 A3009 RMK A01 T01950158  RH  079%=      5-min Rain = 0
KCO1 111220Z 13006KT 20/16 A3009 RMK A01 T01950159  RH  079%=      5-min Rain = 0
KCO1 111221Z 13007KT 20/16 A3009 RMK A01 T01950158  RH  079%=      5-min Rain = 0
KCO1 111222Z 12007KT 20/16 A3009 RMK A01 T01950158  RH  079%=      5-min Rain = 0
KCO1 111223Z 12007KT 20/16 A3009 RMK A01 T01950158  RH  079%=      5-min Rain = 0
KCO1 111224Z 13007KT 20/16 A301 RMK A01 T01950158  RH  079%=      5-min Rain = 0
KCO1 111225Z 13007KT 20/16 A301 RMK A01 T01960158  RH  079%=      5-min Rain = 0
KCO1 111226Z 13006KT 20/16 A301 RMK A01 T01950158  RH  079%=      5-min Rain = 0
KCO1 111227Z 13007KT 20/16 A301 RMK A01 T01960158  RH  079%=      5-min Rain = 0
KCO1 111228Z 13007KT 20/16 A301 RMK A01 T01960158  RH  079%=      5-min Rain = 0
KCO1 111229Z 13006KT 20/16 A301 RMK A01 T01960158  RH  078%=      5-min Rain = 0
KCO1 111230Z 13007KT 20/16 A301 RMK A01 T01970158  RH  078%=      5-min Rain = 0
KCO1 111231Z 13007KT 20/16 A301 RMK A01 T01970158  RH  078%=      5-min Rain = 0
KCO1 111232Z 13007KT 20/16 A301 RMK A01 T01970157  RH  078%=      5-min Rain = 0
KCO1 111233Z 13008KT 20/16 A301 RMK A01 T01980158  RH  077%=      5-min Rain = 0
KCO1 111234Z 13007KT 20/16 A301 RMK A01 T01990157  RH  077%=      5-min Rain = 0
KCO1 111235Z 13008KT 20/16 A301 RMK A01 T02000157  RH  077%=      5-min Rain = 0
KCO1 111236Z 12007KT 20/16 A301 RMK A01 T02010158  RH  076%=      5-min Rain = 0
KCO1 111237Z 12008KT 20/16 A301 RMK A01 T02010158  RH  076%=      5-min Rain = 0
KCO1 111238Z 12007KT 20/16 A301 RMK A01 T02010158  RH  076%=      5-min Rain = 0
KCO1 111239Z 12007KT 20/16 A301 RMK A01 T02020158  RH  076%=      5-min Rain = 0
KCO1 111240Z 12007KT 20/16 A301 RMK A01 T02020158  RH  076%=      5-min Rain = 0
KCO1 111241Z 13007KT 20/16 A301 RMK A01 T02020158  RH  075%=      5-min Rain = 0
KCO1 111242Z 13007KT 20/16 A301 RMK A01 T02030158  RH  075%=      5-min Rain = 0
KCO1 111243Z 13007KT 20/16 A301 RMK A01 T02030158  RH  075%=      5-min Rain = 0
KCO1 111244Z 13007KT 20/16 A301 RMK A01 T02040158  RH  075%=      5-min Rain = 0
KCO1 111245Z 13007KT 21/16 A301 RMK A01 T02050158  RH  074%=      5-min Rain = 0
KCO1 111246Z 13007KT 21/16 A301 RMK A01 T02050158  RH  074%=      5-min Rain = 0
KCO1 111247Z 12008KT 21/16 A301 RMK A01 T02060157  RH  074%=      5-min Rain = 0
KCO1 111248Z 12008KT 21/16 A301 RMK A01 T02060157  RH  073%=      5-min Rain = 0
KCO1 111249Z 12007KT 21/16 A301 RMK A01 T02070158  RH  073%=      5-min Rain = 0
KCO1 111250Z 12007KT 21/16 A301 RMK A01 T02080158  RH  073%=      5-min Rain = 0
KCO1 111251Z 12008KT 21/16 A3011 RMK A01 T02080158  RH  073%=      5-min Rain = 0
KCO1 111252Z 12007KT 21/16 A3011 RMK A01 T02080158  RH  073%=      5-min Rain = 0
KCO1 111253Z 12008KT 21/16 A3011 RMK A01 T02090158  RH  073%=      5-min Rain = 0
KCO1 111254Z 12007KT 21/16 A3011 RMK A01 T02090158  RH  072%=      5-min Rain = 0
KCO1 111255Z 12008KT 21/16 A3011 RMK A01 T02100158  RH  072%=      5-min Rain = 0
KCO1 111256Z 12008KT 21/16 A3011 RMK A01 T02110158  RH  072%=      5-min Rain = 0
KCO1 111257Z 12008KT 21/16 A3011 RMK A01 T02110158  RH  071%=      5-min Rain = 0
KCO1 111258Z 12008KT 21/16 A3011 RMK A01 T02120157  RH  071%=      5-min Rain = 0
KCO1 111259Z 12007KT 21/16 A3011 RMK A01 T02130158  RH  071%=      5-min Rain = 0
KCO1 111300Z 11008KT 21/16 A3011 RMK A01 T02130157  RH  070%=      5-min Rain = 0
KCO1 111301Z 12007KT 21/16 A3011 RMK A01 T02140158  RH  070%=      5-min Rain = 0
KCO1 111302Z 12008KT 22/16 A3011 RMK A01 T02150159  RH  070%=      5-min Rain = 0
KCO1 111303Z 12007KT 22/16 A3011 RMK A01 T02150158  RH  070%=      5-min Rain = 0
KCO1 111304Z 12008KT 22/16 A3011 RMK A01 T02160159  RH  070%=      5-min Rain = 0
KCO1 111305Z 12008KT 22/16 A3011 RMK A01 T02160157  RH  069%=      5-min Rain = 0
KCO1 111306Z 12009KT 22/16 A3011 RMK A01 T02170158  RH  069%=      5-min Rain = 0
KCO1 111307Z 12009KT 22/16 A3011 RMK A01 T02170158  RH  069%=      5-min Rain = 0
KCO1 111308Z 12009KT 22/16 A3011 RMK A01 T02180158  RH  069%=      5-min Rain = 0
KCO1 111309Z 12009KT 22/16 A3011 RMK A01 T02190159  RH  069%=      5-min Rain = 0
KCO1 111310Z 12009KT 22/16 A3011 RMK A01 T02200158  RH  068%=      5-min Rain = 0
KCO1 111311Z 12009KT 22/16 A3011 RMK A01 T02200158  RH  068%=      5-min Rain = 0
KCO1 111312Z 12008KT 22/16 A3011 RMK A01 T02210158  RH  068%=      5-min Rain = 0
KCO1 111313Z 12009KT 22/16 A3011 RMK A01 T02220158  RH  067%=      5-min Rain = 0
KCO1 111314Z 13009KT 22/16 A3011 RMK A01 T02230158  RH  067%=      5-min Rain = 0
KCO1 111315Z 12009KT 22/16 A3011 RMK A01 T02240158  RH  066%=      5-min Rain = 0
KCO1 111316Z 13010KT 22/16 A3011 RMK A01 T02240158  RH  066%=      5-min Rain = 0
KCO1 111317Z 13010KT 23/16 A3011 RMK A01 T02250157  RH  066%=      5-min Rain = 0
KCO1 111318Z 13010KT 23/16 A3011 RMK A01 T02250157  RH  065%=      5-min Rain = 0
KCO1 111319Z 13010KT 23/16 A3011 RMK A01 T02260158  RH  065%=      5-min Rain = 0
KCO1 111320Z 13009KT 23/16 A3011 RMK A01 T02260158  RH  065%=      5-min Rain = 0
KCO1 111321Z 13009KT 23/16 A3011 RMK A01 T02270158  RH  065%=      5-min Rain = 0
KCO1 111322Z 13010KT 23/16 A3011 RMK A01 T02270158  RH  065%=      5-min Rain = 0
KCO1 111323Z 13011KT 23/16 A3011 RMK A01 T02280158  RH  065%=      5-min Rain = 0
KCO1 111324Z 13011KT 23/16 A3011 RMK A01 T02280158  RH  065%=      5-min Rain = 0
KCO1 111325Z 12010KT 23/16 A3011 RMK A01 T02280158  RH  065%=      5-min Rain = 0
KCO1 111326Z 13010KT 23/16 A3011 RMK A01 T02280159  RH  065%=      5-min Rain = 0
KCO1 111327Z 13009KT 23/16 A3011 RMK A01 T02280159  RH  065%=      5-min Rain = 0
KCO1 111328Z 13010KT 23/16 A3011 RMK A01 T02290159  RH  065%=      5-min Rain = 0
KCO1 111329Z 13010KT 23/16 A3011 RMK A01 T02290158  RH  064%=      5-min Rain = 0
KCO1 111330Z 13010KT 23/16 A3011 RMK A01 T02300158  RH  064%=      5-min Rain = 0
KCO1 111331Z 13010KT 23/16 A3011 RMK A01 T02310159  RH  064%=      5-min Rain = 0
KCO1 111332Z 13011KT 23/16 A3011 RMK A01 T02310159  RH  064%=      5-min Rain = 0
KCO1 111333Z 13009KT 23/16 A3011 RMK A01 T02320158  RH  063%=      5-min Rain = 0
KCO1 111334Z 14010KT 23/16 A3011 RMK A01 T02330160  RH  064%=      5-min Rain = 0
KCO1 111335Z 13010KT 23/16 A3011 RMK A01 T02340159  RH  063%=      5-min Rain = 0
KCO1 111336Z 13009KT 23/16 A3011 RMK A01 T02340159  RH  063%=      5-min Rain = 0
KCO1 111337Z 13008KT 24/16 A3011 RMK A01 T02350160  RH  063%=      5-min Rain = 0
KCO1 111338Z 13010KT 24/16 A3011 RMK A01 T02360160  RH  063%=      5-min Rain = 0
KCO1 111339Z 13010KT 24/16 A3011 RMK A01 T02370160  RH  062%=      5-min Rain = 0
KCO1 111340Z 13008KT 24/16 A3011 RMK A01 T02380160  RH  062%=      5-min Rain = 0
KCO1 111341Z 13008KT 24/16 A3011 RMK A01 T02390162  RH  062%=      5-min Rain = 0
KCO1 111342Z 13009KT 24/16 A3011 RMK A01 T02410161  RH  061%=      5-min Rain = 0
KCO1 111343Z 13008KT 24/16 A3012 RMK A01 T02420161  RH  061%=      5-min Rain = 0
KCO1 111344Z 13009KT 24/16 A3012 RMK A01 T02430162  RH  061%=      5-min Rain = 0
KCO1 111345Z 13007KT 24/16 A3012 RMK A01 T02430162  RH  060%=      5-min Rain = 0
KCO1 111346Z 13008KT 24/16 A3012 RMK A01 T02440162  RH  060%=      5-min Rain = 0
KCO1 111347Z 13010KT 25/16 A3012 RMK A01 T02450162  RH  060%=      5-min Rain = 0
KCO1 111348Z 13009KT 25/16 A3012 RMK A01 T02450161  RH  059%=      5-min Rain = 0
KCO1 111349Z 13009KT 25/16 A3012 RMK A01 T02460162  RH  059%=      5-min Rain = 0
KCO1 111350Z 14010KT 25/16 A3012 RMK A01 T02460160  RH  059%=      5-min Rain = 0
KCO1 111351Z 13008KT 25/16 A3012 RMK A01 T02470160  RH  058%=      5-min Rain = 0
KCO1 111352Z 13008KT 25/16 A3012 RMK A01 T02480162  RH  059%=      5-min Rain = 0
KCO1 111353Z 13010KT 25/16 A3012 RMK A01 T02490163  RH  059%=      5-min Rain = 0
KCO1 111354Z 13008KT 25/16 A3012 RMK A01 T02490161  RH  058%=      5-min Rain = 0
KCO1 111355Z 13008KT 25/16 A3012 RMK A01 T02500161  RH  058%=      5-min Rain = 0
KCO1 111356Z 13010KT 25/16 A3012 RMK A01 T02510162  RH  058%=      5-min Rain = 0
KCO1 111357Z 12010KT 25/16 A3012 RMK A01 T02510161  RH  057%=      5-min Rain = 0
KCO1 111358Z 13009KT 25/16 A3012 RMK A01 T02510162  RH  058%=      5-min Rain = 0
KCO1 111359Z 13009KT 25/16 A3012 RMK A01 T02520162  RH  058%=      5-min Rain = 0
KCO1 111400Z 13010KT 25/16 A3012 RMK A01 T02520161  RH  057%=      5-min Rain = 0
KCO1 111401Z 13009KT 25/16 A3012 RMK A01 T02520161  RH  057%=      5-min Rain = 0
KCO1 111402Z 13009KT 25/16 A3012 RMK A01 T02530161  RH  057%=      5-min Rain = 0
KCO1 111403Z 14009KT 25/16 A3012 RMK A01 T02530160  RH  056%=      5-min Rain = 0
KCO1 111404Z 14008KT 25/16 A3012 RMK A01 T02540161  RH  057%=      5-min Rain = 0
KCO1 111405Z 13009KT 26/16 A3012 RMK A01 T02550162  RH  056%=      5-min Rain = 0
KCO1 111406Z 13009KT 26/16 A3012 RMK A01 T02560161  RH  056%=      5-min Rain = 0
KCO1 111407Z 13006KT 26/16 A3012 RMK A01 T02560163  RH  056%=      5-min Rain = 0
KCO1 111408Z 14008KT 26/17 A3012 RMK A01 T02580166  RH  057%=      5-min Rain = 0
KCO1 111409Z 14007KT 26/16 A3012 RMK A01 T02590164  RH  055%=      5-min Rain = 0
KCO1 111410Z 14007KT 26/17 A3012 RMK A01 T02600165  RH  056%=      5-min Rain = 0
KCO1 111411Z 13008KT 26/17 A3012 RMK A01 T02620165  RH  055%=      5-min Rain = 0
KCO1 111412Z 13009KT 26/16 A3012 RMK A01 T02620164  RH  055%=      5-min Rain = 0
KCO1 111413Z 13010KT 26/16 A3012 RMK A01 T02630161  RH  054%=      5-min Rain = 0
KCO1 111414Z 13008KT 26/16 A3012 RMK A01 T02620161  RH  054%=      5-min Rain = 0
KCO1 111415Z 13007KT 26/17 A3012 RMK A01 T02620165  RH  055%=      5-min Rain = 0
KCO1 111416Z 13009KT 26/17 A3012 RMK A01 T02630166  RH  055%=      5-min Rain = 0
KCO1 111417Z 14011KT 26/16 A3012 RMK A01 T02640162  RH  053%=      5-min Rain = 0
KCO1 111418Z 14010KT 26/16 A3012 RMK A01 T02640161  RH  053%=      5-min Rain = 0
KCO1 111419Z 15010KT 26/16 A3012 RMK A01 T02640160  RH  053%=      5-min Rain = 0
KCO1 111420Z 14012KT 27/16 A3012 RMK A01 T02650159  RH  052%=      5-min Rain = 0
KCO1 111421Z 14009KT 27/16 A3012 RMK A01 T02650159  RH  052%=      5-min Rain = 0
KCO1 111422Z 14008KT 27/16 A3012 RMK A01 T02660163  RH  053%=      5-min Rain = 0
KCO1 111423Z 15009KT 27/16 A3012 RMK A01 T02670162  RH  053%=      5-min Rain = 0
KCO1 111424Z 15010KT 27/16 A3012 RMK A01 T02680162  RH  052%=      5-min Rain = 0
KCO1 111425Z 15008KT 27/16 A3012 RMK A01 T02680163  RH  052%=      5-min Rain = 0
KCO1 111426Z 15008KT 27/16 A3012 RMK A01 T02690162  RH  052%=      5-min Rain = 0
KCO1 111427Z 14010KT 27/16 A3012 RMK A01 T02690162  RH  052%=      5-min Rain = 0
KCO1 111428Z 13010KT 27/16 A3012 RMK A01 T02690160  RH  051%=      5-min Rain = 0
KCO1 111429Z 13008KT 27/16 A3012 RMK A01 T02680161  RH  052%=      5-min Rain = 0
KCO1 111430Z 14007KT 27/16 A3012 RMK A01 T02680163  RH  052%=      5-min Rain = 0
KCO1 111431Z 15007KT 27/16 A3012 RMK A01 T02690162  RH  052%=      5-min Rain = 0
KCO1 111432Z 15008KT 27/16 A3012 RMK A01 T02700164  RH  052%=      5-min Rain = 0
KCO1 111433Z 14008KT 27/16 A3012 RMK A01 T02710164  RH  052%=      5-min Rain = 0
KCO1 111434Z 14008KT 27/17 A3012 RMK A01 T02710166  RH  052%=      5-min Rain = 0
KCO1 111435Z 15008KT 27/17 A3012 RMK A01 T02720165  RH  052%=      5-min Rain = 0
KCO1 111436Z 14008KT 27/16 A3012 RMK A01 T02730163  RH  051%=      5-min Rain = 0
KCO1 111437Z 14008KT 27/17 A3012 RMK A01 T02730165  RH  052%=      5-min Rain = 0
KCO1 111438Z 13007KT 27/17 A3012 RMK A01 T02730166  RH  052%=      5-min Rain = 0
KCO1 111439Z 14009KT 27/17 A3012 RMK A01 T02740166  RH  052%=      5-min Rain = 0
KCO1 111440Z 14010KT 27/16 A3012 RMK A01 T02740164  RH  051%=      5-min Rain = 0
KCO1 111441Z 13009KT 27/17 A3012 RMK A01 T02720165  RH  052%=      5-min Rain = 0
KCO1 111442Z 13008KT 27/17 A3012 RMK A01 T02720166  RH  052%=      5-min Rain = 0
KCO1 111443Z 13008KT 27/17 A3012 RMK A01 T02720166  RH  052%=      5-min Rain = 0
KCO1 111444Z 12008KT 27/17 A3012 RMK A01 T02720165  RH  052%=      5-min Rain = 0
KCO1 111445Z 13008KT 27/17 A3012 RMK A01 T02720167  RH  052%=      5-min Rain = 0
KCO1 111446Z 13007KT 27/17 A3012 RMK A01 T02730167  RH  052%=      5-min Rain = 0
KCO1 111447Z 13007KT 27/17 A3012 RMK A01 T02740168  RH  052%=      5-min Rain = 0
KCO1 111448Z 13007KT 28/17 A3012 RMK A01 T02750169  RH  052%=      5-min Rain = 0
KCO1 111449Z 15007KT 28/17 A3012 RMK A01 T02770170  RH  052%=      5-min Rain = 0
KCO1 111450Z 13008KT 28/17 A3012 RMK A01 T02790169  RH  051%=      5-min Rain = 0
KCO1 111451Z 13007KT 28/17 A3012 RMK A01 T02790168  RH  051%=      5-min Rain = 0
KCO1 111452Z 13008KT 28/17 A3012 RMK A01 T02800170  RH  051%=      5-min Rain = 0
KCO1 111453Z 13009KT 28/17 A3012 RMK A01 T02810168  RH  050%=      5-min Rain = 0
KCO1 111454Z 13009KT 28/17 A3012 RMK A01 T02800166  RH  050%=      5-min Rain = 0
KCO1 111455Z 14009KT 28/17 A3012 RMK A01 T02800169  RH  051%=      5-min Rain = 0
KCO1 111456Z 14010KT 28/17 A3012 RMK A01 T02800167  RH  050%=      5-min Rain = 0
KCO1 111457Z 14007KT 28/17 A3012 RMK A01 T02800169  RH  051%=      5-min Rain = 0
KCO1 111458Z 13010KT 28/17 A3012 RMK A01 T02810168  RH  050%=      5-min Rain = 0
KCO1 111459Z 14010KT 28/17 A3012 RMK A01 T02810167  RH  050%=      5-min Rain = 0
KCO1 111500Z 13010KT 28/17 A3012 RMK A01 T02810167  RH  050%=      5-min Rain = 0
KCO1 111501Z 13010KT 28/17 A3012 RMK A01 T02810166  RH  050%=      5-min Rain = 0
KCO1 111502Z 14008KT 28/17 A3012 RMK A01 T02810168  RH  050%=      5-min Rain = 0
KCO1 111503Z 15006KT 28/17 A3012 RMK A01 T02820170  RH  051%=      5-min Rain = 0
KCO1 111504Z 15008KT 29/17 A3012 RMK A01 T02850171  RH  050%=      5-min Rain = 0
KCO1 111505Z 13008KT 29/17 A3012 RMK A01 T02860169  RH  049%=      5-min Rain = 0
KCO1 111506Z 14009KT 29/17 A3012 RMK A01 T02860169  RH  049%=      5-min Rain = 0
KCO1 111507Z 14007KT 29/17 A3012 RMK A01 T02850170  RH  050%=      5-min Rain = 0
KCO1 111508Z 14009KT 29/17 A3012 RMK A01 T02850169  RH  049%=      5-min Rain = 0
KCO1 111509Z 12009KT 29/17 A3012 RMK A01 T02850167  RH  049%=      5-min Rain = 0
KCO1 111510Z 13011KT 29/17 A3012 RMK A01 T02850168  RH  049%=      5-min Rain = 0
KCO1 111511Z 14011KT 29/17 A3012 RMK A01 T02850167  RH  049%=      5-min Rain = 0
KCO1 111512Z 13010KT 29/17 A3012 RMK A01 T02850167  RH  049%=      5-min Rain = 0
KCO1 111513Z 13009KT 29/17 A3012 RMK A01 T02850167  RH  049%=      5-min Rain = 0
KCO1 111514Z 12010KT 29/17 A3012 RMK A01 T02860168  RH  049%=      5-min Rain = 0
KCO1 111515Z 12010KT 29/17 A3012 RMK A01 T02870167  RH  048%=      5-min Rain = 0
KCO1 111516Z 14009KT 29/17 A3012 RMK A01 T02870168  RH  049%=      5-min Rain = 0
KCO1 111517Z 14006KT 29/17 A3012 RMK A01 T02880169  RH  049%=      5-min Rain = 0
KCO1 111518Z 15006KT 29/17 A3012 RMK A01 T02890169  RH  048%=      5-min Rain = 0
KCO1 111519Z 13007KT 29/17 A3012 RMK A01 T02900169  RH  048%=      5-min Rain = 0
KCO1 111520Z 14009KT 29/17 A3012 RMK A01 T02910169  RH  048%=      5-min Rain = 0
KCO1 111521Z 15010KT 29/17 A3012 RMK A01 T02910166  RH  047%=      5-min Rain = 0
KCO1 111522Z 14008KT 29/17 A3012 RMK A01 T02900166  RH  047%=      5-min Rain = 0
KCO1 111523Z 15008KT 29/17 A3012 RMK A01 T02900166  RH  047%=      5-min Rain = 0
KCO1 111524Z 15009KT 29/17 A3012 RMK A01 T02900167  RH  047%=      5-min Rain = 0
KCO1 111525Z 13008KT 29/17 A3012 RMK A01 T02900169  RH  048%=      5-min Rain = 0
KCO1 111526Z 14009KT 29/17 A3012 RMK A01 T02920168  RH  047%=      5-min Rain = 0
KCO1 111527Z 14009KT 29/17 A3012 RMK A01 T02920168  RH  047%=      5-min Rain = 0
KCO1 111528Z 14007KT 29/17 A3012 RMK A01 T02920170  RH  048%=      5-min Rain = 0
KCO1 111529Z 15007KT 29/17 A3012 RMK A01 T02940169  RH  047%=      5-min Rain = 0
KCO1 111530Z 14007KT 30/17 A3012 RMK A01 T02950169  RH  047%=      5-min Rain = 0
KCO1 111531Z 16008KT 30/17 A3012 RMK A01 T02950169  RH  047%=      5-min Rain = 0
KCO1 111532Z 14008KT 30/17 A3012 RMK A01 T02950167  RH  046%=      5-min Rain = 0
KCO1 111533Z 16009KT 29/17 A3012 RMK A01 T02940166  RH  046%=      5-min Rain = 0
KCO1 111534Z 15007KT 29/17 A3012 RMK A01 T02940168  RH  047%=      5-min Rain = 0
KCO1 111535Z 13007KT 29/17 A3012 RMK A01 T02940169  RH  047%=      5-min Rain = 0
KCO1 111536Z 15008KT 30/17 A3012 RMK A01 T02950168  RH  046%=      5-min Rain = 0
KCO1 111537Z 16008KT 30/17 A3012 RMK A01 T02960168  RH  046%=      5-min Rain = 0
KCO1 111538Z 16006KT 30/17 A3012 RMK A01 T02960165  RH  045%=      5-min Rain = 0
KCO1 111539Z 16005KT 29/17 A3012 RMK A01 T02940166  RH  046%=      5-min Rain = 0
KCO1 111540Z 15006KT 29/17 A3012 RMK A01 T02940170  RH  047%=      5-min Rain = 0
KCO1 111541Z 16010KT 30/17 A3012 RMK A01 T02960169  RH  046%=      5-min Rain = 0
KCO1 111542Z 16008KT 30/17 A3012 RMK A01 T02960166  RH  045%=      5-min Rain = 0
KCO1 111543Z 17008KT 30/17 A3012 RMK A01 T02960168  RH  046%=      5-min Rain = 0
KCO1 111544Z 15008KT 30/17 A3012 RMK A01 T02960168  RH  046%=      5-min Rain = 0
KCO1 111545Z 14006KT 30/17 A3012 RMK A01 T02960169  RH  046%=      5-min Rain = 0
KCO1 111546Z 14007KT 30/17 A3012 RMK A01 T02980169  RH  046%=      5-min Rain = 0
KCO1 111547Z 15006KT 30/17 A3012 RMK A01 T02990169  RH  046%=      5-min Rain = 0
KCO1 111548Z 17008KT 30/17 A3012 RMK A01 T03010170  RH  045%=      5-min Rain = 0
KCO1 111549Z 16007KT 30/17 A3012 RMK A01 T03020171  RH  046%=      5-min Rain = 0
KCO1 111550Z 17007KT 30/17 A3012 RMK A01 T03020171  RH  045%=      5-min Rain = 0
KCO1 111551Z 16009KT 30/17 A3012 RMK A01 T03030169  RH  045%=      5-min Rain = 0
KCO1 111552Z 15007KT 30/17 A3012 RMK A01 T03020168  RH  044%=      5-min Rain = 0
KCO1 111553Z 15005KT 30/17 A3012 RMK A01 T03020167  RH  044%=      5-min Rain = 0
KCO1 111554Z 14008KT 30/17 A3011 RMK A01 T03010169  RH  045%=      5-min Rain = 0
KCO1 111555Z 15008KT 30/17 A3011 RMK A01 T03010167  RH  045%=      5-min Rain = 0
KCO1 111556Z 15009KT 30/17 A3011 RMK A01 T03010170  RH  045%=      5-min Rain = 0
KCO1 111557Z 16008KT 30/17 A3011 RMK A01 T03030170  RH  045%=      5-min Rain = 0
KCO1 111558Z 16006KT 30/17 A3012 RMK A01 T03040171  RH  045%=      5-min Rain = 0
KCO1 111559Z 15006KT 30/17 A3012 RMK A01 T03040170  RH  045%=      5-min Rain = 0
KCO1 111600Z 14007KT 31/17 A3011 RMK A01 T03050168  RH  044%=      5-min Rain = 0
KCO1 111601Z 13007KT 30/17 A3012 RMK A01 T03040167  RH  044%=      5-min Rain = 0
KCO1 111602Z 17007KT 30/17 A3012 RMK A01 T03030169  RH  045%=      5-min Rain = 0
KCO1 111603Z 17008KT 30/17 A3011 RMK A01 T03020168  RH  044%=      5-min Rain = 0
KCO1 111604Z 16006KT 30/17 A3011 RMK A01 T03020169  RH  045%=      5-min Rain = 0
KCO1 111605Z 16007KT 30/17 A3011 RMK A01 T03030171  RH  045%=      5-min Rain = 0
KCO1 111606Z 15009KT 31/17 A3011 RMK A01 T03050171  RH  045%=      5-min Rain = 0
KCO1 111607Z 16009KT 31/17 A3011 RMK A01 T03060168  RH  044%=      5-min Rain = 0
KCO1 111608Z 14005KT 31/17 A3011 RMK A01 T03050165  RH  043%=      5-min Rain = 0
KCO1 111609Z 15006KT 30/17 A3011 RMK A01 T03030169  RH  044%=      5-min Rain = 0
KCO1 111610Z 14006KT 30/17 A3011 RMK A01 T03040166  RH  044%=      5-min Rain = 0
KCO1 111611Z 13006KT 30/17 A3011 RMK A01 T03040168  RH  044%=      5-min Rain = 0
KCO1 111612Z 13008KT 31/17 A3011 RMK A01 T03050171  RH  045%=      5-min Rain = 0
KCO1 111613Z 15008KT 31/17 A3011 RMK A01 T03070171  RH  044%=      5-min Rain = 0
KCO1 111614Z 17004KT 31/17 A3011 RMK A01 T03090168  RH  043%=      5-min Rain = 0
KCO1 111615Z 15006KT 31/17 A3011 RMK A01 T03090168  RH  043%=      5-min Rain = 0
KCO1 111616Z 15005KT 31/17 A3011 RMK A01 T03080166  RH  042%=      5-min Rain = 0
KCO1 111617Z 11005KT 31/17 A3011 RMK A01 T03080170  RH  044%=      5-min Rain = 0
KCO1 111618Z 12007KT 31/17 A3011 RMK A01 T03080170  RH  044%=      5-min Rain = 0
KCO1 111619Z 13010KT 31/17 A3011 RMK A01 T03090170  RH  043%=      5-min Rain = 0
KCO1 111620Z 15009KT 31/17 A3011 RMK A01 T03090169  RH  043%=      5-min Rain = 0
KCO1 111621Z 15009KT 31/17 A3011 RMK A01 T03090168  RH  043%=      5-min Rain = 0
KCO1 111622Z 15007KT 31/17 A3012 RMK A01 T03070168  RH  043%=      5-min Rain = 0
KCO1 111623Z 18007KT 31/17 A3012 RMK A01 T03060169  RH  044%=      5-min Rain = 0
KCO1 111624Z 16005KT 31/17 A3012 RMK A01 T03060168  RH  044%=      5-min Rain = 0
KCO1 111625Z 14006KT 31/17 A3012 RMK A01 T03050170  RH  044%=      5-min Rain = 0
KCO1 111626Z 12006KT 31/17 A3012 RMK A01 T03070171  RH  044%=      5-min Rain = 0
KCO1 111627Z 13006KT 31/17 A3012 RMK A01 T03080169  RH  043%=      5-min Rain = 0
KCO1 111628Z 14007KT 31/17 A3012 RMK A01 T03080170  RH  043%=      5-min Rain = 0
KCO1 111629Z 14009KT 31/17 A3011 RMK A01 T03080168  RH  043%=      5-min Rain = 0
KCO1 111630Z 14006KT 31/17 A3011 RMK A01 T03070166  RH  043%=      5-min Rain = 0
KCO1 111631Z 15007KT 31/17 A3011 RMK A01 T03050166  RH  043%=      5-min Rain = 0
KCO1 111632Z 15006KT 30/17 A3011 RMK A01 T03040167  RH  044%=      5-min Rain = 0
KCO1 111633Z 17006KT 30/17 A3011 RMK A01 T03040167  RH  044%=      5-min Rain = 0
KCO1 111634Z 19008KT 31/17 A3011 RMK A01 T03060168  RH  044%=      5-min Rain = 0
KCO1 111635Z 17008KT 31/17 A3011 RMK A01 T03070166  RH  043%=      5-min Rain = 0
KCO1 111636Z 18006KT 31/16 A3011 RMK A01 T03070164  RH  042%=      5-min Rain = 0
KCO1 111637Z 19006KT 31/16 A3011 RMK A01 T03060163  RH  042%=      5-min Rain = 0
KCO1 111638Z 19005KT 31/16 A3011 RMK A01 T03050161  RH  042%=      5-min Rain = 0
KCO1 111639Z 17006KT 30/17 A3011 RMK A01 T03040167  RH  044%=      5-min Rain = 0
KCO1 111640Z 14004KT 31/17 A3011 RMK A01 T03060169  RH  044%=      5-min Rain = 0
KCO1 111641Z 13003KT 31/17 A3011 RMK A01 T03080166  RH  043%=      5-min Rain = 0
KCO1 111642Z 16005KT 31/17 A3011 RMK A01 T03080167  RH  043%=      5-min Rain = 0
KCO1 111643Z 17008G13KT 31/17 A3011 RMK A01 T03080166  RH  043%=      5-min Rain = 0
KCO1 111644Z 16009KT 31/16 A3011 RMK A01 T03080164  RH  042%=      5-min Rain = 0
KCO1 111645Z 15006KT 31/16 A3011 RMK A01 T03070163  RH  042%=      5-min Rain = 0
KCO1 111646Z 16006KT 31/17 A3011 RMK A01 T03060165  RH  043%=      5-min Rain = 0
KCO1 111647Z 14008KT 31/16 A3011 RMK A01 T03070164  RH  042%=      5-min Rain = 0
KCO1 111648Z 12005KT 31/16 A3011 RMK A01 T03070163  RH  042%=      5-min Rain = 0
KCO1 111649Z 15006KT 31/17 A3011 RMK A01 T03070165  RH  042%=      5-min Rain = 0
KCO1 111650Z 16005KT 31/16 A3011 RMK A01 T03070162  RH  042%=      5-min Rain = 0
KCO1 111651Z 15003KT 31/17 A3011 RMK A01 T03070165  RH  043%=      5-min Rain = 0
KCO1 111652Z 14005KT 31/16 A3011 RMK A01 T03090164  RH  042%=      5-min Rain = 0
KCO1 111653Z 16006KT 31/17 A3011 RMK A01 T03110169  RH  043%=      5-min Rain = 0
KCO1 111654Z 15009KT 31/17 A3011 RMK A01 T03140171  RH  042%=      5-min Rain = 0
KCO1 111655Z 15008KT 32/17 A3011 RMK A01 T03160168  RH  041%=      5-min Rain = 0
KCO1 111656Z 14008KT 32/17 A3011 RMK A01 T03160169  RH  041%=      5-min Rain = 0
KCO1 111657Z 15005KT 32/17 A3011 RMK A01 T03150167  RH  041%=      5-min Rain = 0
KCO1 111658Z 16005KT 32/17 A3011 RMK A01 T03150165  RH  041%=      5-min Rain = 0
KCO1 111659Z 16005KT 31/17 A3011 RMK A01 T03130166  RH  041%=      5-min Rain = 0
KCO1 111700Z 13003KT 31/17 A3011 RMK A01 T03130167  RH  041%=      5-min Rain = 0
KCO1 111701Z 14008KT 32/17 A3011 RMK A01 T03150169  RH  042%=      5-min Rain = 0
KCO1 111702Z 15008KT 32/17 A3011 RMK A01 T03150167  RH  041%=      5-min Rain = 0
KCO1 111703Z 16008KT 31/17 A3011 RMK A01 T03130167  RH  042%=      5-min Rain = 0
KCO1 111704Z 16009KT 31/17 A3011 RMK A01 T03130169  RH  042%=      5-min Rain = 0
KCO1 111705Z 15009KT 31/17 A3011 RMK A01 T03140169  RH  042%=      5-min Rain = 0
KCO1 111706Z 15006KT 31/17 A3011 RMK A01 T03130165  RH  041%=      5-min Rain = 0
KCO1 111707Z 15006KT 31/17 A3011 RMK A01 T03120170  RH  043%=      5-min Rain = 0
KCO1 111708Z 15009KT 31/17 A3011 RMK A01 T03130168  RH  042%=      5-min Rain = 0
KCO1 111709Z 14007KT 31/17 A3011 RMK A01 T03130165  RH  041%=      5-min Rain = 0
KCO1 111710Z 16008KT 31/17 A3011 RMK A01 T03110169  RH  043%=      5-min Rain = 0
KCO1 111711Z 18007KT 31/17 A3011 RMK A01 T03120168  RH  042%=      5-min Rain = 0
KCO1 111712Z 18006KT 31/17 A3011 RMK A01 T03120168  RH  042%=      5-min Rain = 0
KCO1 111713Z 14004KT 31/17 A3011 RMK A01 T03120166  RH  041%=      5-min Rain = 0
KCO1 111714Z 10005KT 31/17 A3011 RMK A01 T03120170  RH  043%=      5-min Rain = 0
KCO1 111715Z 12004KT 31/17 A3011 RMK A01 T03130171  RH  043%=      5-min Rain = 0
KCO1 111716Z 12008KT 32/17 A3011 RMK A01 T03160171  RH  042%=      5-min Rain = 0
KCO1 111717Z 13007KT 32/17 A3011 RMK A01 T03170170  RH  041%=      5-min Rain = 0
KCO1 111718Z 14007KT 32/17 A3011 RMK A01 T03180171  RH  041%=      5-min Rain = 0
KCO1 111719Z 15006KT 32/17 A3011 RMK A01 T03190168  RH  040%=      5-min Rain = 0
KCO1 111720Z 14007KT 32/17 A3011 RMK A01 T03190168  RH  040%=      5-min Rain = 0
KCO1 111721Z 12008KT 32/17 A3011 RMK A01 T03180166  RH  040%=      5-min Rain = 0
KCO1 111722Z 14008KT 32/17 A3011 RMK A01 T03160167  RH  041%=      5-min Rain = 0
KCO1 111723Z 14007KT 32/17 A3011 RMK A01 T03150168  RH  041%=      5-min Rain = 0
KCO1 111724Z 15009KT 32/17 A3011 RMK A01 T03170171  RH  042%=      5-min Rain = 0
KCO1 111725Z 16010KT 32/17 A3011 RMK A01 T03200171  RH  041%=      5-min Rain = 0
KCO1 111726Z 15008KT 32/17 A3011 RMK A01 T03210168  RH  040%=      5-min Rain = 0
KCO1 111727Z 14008KT 32/17 A3011 RMK A01 T03190168  RH  040%=      5-min Rain = 0
KCO1 111728Z 13009KT 32/17 A3011 RMK A01 T03180169  RH  041%=      5-min Rain = 0
KCO1 111729Z 14008KT 32/17 A3011 RMK A01 T03180169  RH  041%=      5-min Rain = 0
KCO1 111730Z 15005KT 32/16 A3011 RMK A01 T03190164  RH  039%=      5-min Rain = 0
KCO1 111731Z 14005KT 32/17 A3011 RMK A01 T03190165  RH  040%=      5-min Rain = 0
KCO1 111732Z 16007KT 32/17 A301 RMK A01 T03190167  RH  040%=      5-min Rain = 0
KCO1 111733Z 15009KT 32/17 A301 RMK A01 T03200165  RH  040%=      5-min Rain = 0
KCO1 111734Z 13008KT 32/17 A301 RMK A01 T03200167  RH  040%=      5-min Rain = 0
KCO1 111735Z 13008KT 32/17 A301 RMK A01 T03210168  RH  040%=      5-min Rain = 0
KCO1 111736Z 16007KT 32/17 A301 RMK A01 T03230171  RH  040%=      5-min Rain = 0
KCO1 111737Z 17007KT 32/17 A301 RMK A01 T03240167  RH  039%=      5-min Rain = 0
KCO1 111738Z 16006KT 32/16 A301 RMK A01 T03230164  RH  039%=      5-min Rain = 0
KCO1 111739Z 15005KT 32/16 A301 RMK A01 T03190163  RH  039%=      5-min Rain = 0
KCO1 111740Z 15006KT 32/16 A301 RMK A01 T03180164  RH  040%=      5-min Rain = 0
KCO1 111741Z 13006KT 32/17 A301 RMK A01 T03180168  RH  041%=      5-min Rain = 0
KCO1 111742Z 11007KT 32/17 A301 RMK A01 T03190166  RH  040%=      5-min Rain = 0
KCO1 111743Z 15005KT 32/17 A301 RMK A01 T03200167  RH  040%=      5-min Rain = 0
KCO1 111744Z 15008KT 32/17 A301 RMK A01 T03210171  RH  041%=      5-min Rain = 0
KCO1 111745Z 16010KT 32/17 A301 RMK A01 T03230165  RH  039%=      5-min Rain = 0
KCO1 111746Z 16010KT 32/17 A301 RMK A01 T03230165  RH  039%=      5-min Rain = 0
KCO1 111747Z 15006KT 32/16 A301 RMK A01 T03210161  RH  038%=      5-min Rain = 0
KCO1 111748Z 15005G12KT 32/16 A301 RMK A01 T03190161  RH  039%=      5-min Rain = 0
KCO1 111749Z 13009KT 32/17 A301 RMK A01 T03190165  RH  040%=      5-min Rain = 0
KCO1 111750Z 13007KT 32/16 A301 RMK A01 T03190163  RH  039%=      5-min Rain = 0
KCO1 111751Z 14006KT 32/16 A301 RMK A01 T03190164  RH  039%=      5-min Rain = 0
KCO1 111752Z 12009KT 32/17 A301 RMK A01 T03190166  RH  040%=      5-min Rain = 0
KCO1 111753Z 12008KT 32/16 A301 RMK A01 T03200164  RH  039%=      5-min Rain = 0
KCO1 111754Z 11006KT 32/17 A301 RMK A01 T03180166  RH  040%=      5-min Rain = 0
KCO1 111755Z 13005KT 32/17 A301 RMK A01 T03170165  RH  040%=      5-min Rain = 0
KCO1 111756Z 13005KT 32/17 A301 RMK A01 T03170165  RH  040%=      5-min Rain = 0
KCO1 111757Z 14008KT 32/17 A301 RMK A01 T03190169  RH  041%=      5-min Rain = 0
KCO1 111758Z 15010KT 32/17 A3009 RMK A01 T03220167  RH  039%=      5-min Rain = 0
KCO1 111759Z 14008KT 32/17 A3009 RMK A01 T03230166  RH  039%=      5-min Rain = 0
KCO1 111800Z 13008KT 32/17 A3009 RMK A01 T03230166  RH  039%=      5-min Rain = 0
KCO1 111801Z 12008KT 32/17 A3009 RMK A01 T03220165  RH  039%=      5-min Rain = 0
KCO1 111802Z 12010KT 32/17 A3009 RMK A01 T03230172  RH  040%=      5-min Rain = 0
KCO1 111803Z 12009KT 33/17 A3009 RMK A01 T03290169  RH  039%=      5-min Rain = 0
KCO1 111804Z 12007KT 33/17 A3009 RMK A01 T03290168  RH  038%=      5-min Rain = 0
KCO1 111805Z 15011KT 33/17 A3009 RMK A01 T03290167  RH  038%=      5-min Rain = 0
KCO1 111806Z 16010KT 33/17 A3009 RMK A01 T03280168  RH  038%=      5-min Rain = 0
KCO1 111807Z 14010KT 33/17 A3009 RMK A01 T03290165  RH  038%=      5-min Rain = 0
KCO1 111808Z 12012KT 33/16 A3009 RMK A01 T03270164  RH  038%=      5-min Rain = 0
KCO1 111809Z 11008KT 33/16 A3009 RMK A01 T03250164  RH  038%=      5-min Rain = 0
KCO1 111810Z 12009KT 32/16 A3009 RMK A01 T03240162  RH  038%=      5-min Rain = 0
KCO1 111811Z 13005KT 32/16 A3009 RMK A01 T03220161  RH  038%=      5-min Rain = 0
KCO1 111812Z 13007KT 32/16 A3009 RMK A01 T03220163  RH  039%=      5-min Rain = 0
KCO1 111813Z 14008KT 32/16 A3009 RMK A01 T03230162  RH  038%=      5-min Rain = 0
KCO1 111814Z 12009KT 33/17 A3009 RMK A01 T03270166  RH  038%=      5-min Rain = 0
KCO1 111815Z 13008KT 33/17 A3009 RMK A01 T03300166  RH  038%=      5-min Rain = 0
KCO1 111816Z 13008KT 33/16 A3009 RMK A01 T03320164  RH  037%=      5-min Rain = 0
KCO1 111817Z 17006KT 33/17 A3009 RMK A01 T03320166  RH  037%=      5-min Rain = 0
KCO1 111818Z 18008KT 33/17 A3009 RMK A01 T03320165  RH  037%=      5-min Rain = 0
KCO1 111819Z 18009KT 33/16 A3009 RMK A01 T03310162  RH  036%=      5-min Rain = 0
KCO1 111820Z 18011KT 33/16 A3009 RMK A01 T03300163  RH  037%=      5-min Rain = 0
KCO1 111821Z 18009KT 33/16 A3009 RMK A01 T03300162  RH  037%=      5-min Rain = 0
KCO1 111822Z 17007KT 33/16 A3009 RMK A01 T03310160  RH  036%=      5-min Rain = 0
KCO1 111823Z 18007KT 33/16 A3009 RMK A01 T03290158  RH  036%=      5-min Rain = 0
KCO1 111824Z 12007KT 33/16 A3009 RMK A01 T03270161  RH  037%=      5-min Rain = 0
KCO1 111825Z 14010G15KT 33/16 A3009 RMK A01 T03280160  RH  037%=      5-min Rain = 0
KCO1 111826Z 14009KT 33/16 A3009 RMK A01 T03300157  RH  035%=      5-min Rain = 0
KCO1 111827Z 15008KT 33/16 A3009 RMK A01 T03310161  RH  036%=      5-min Rain = 0
KCO1 111828Z 15010KT 33/16 A3009 RMK A01 T03320162  RH  036%=      5-min Rain = 0
KCO1 111829Z 16007KT 33/16 A3009 RMK A01 T03330160  RH  036%=      5-min Rain = 0
KCO1 111830Z 15009KT 33/16 A3008 RMK A01 T03320157  RH  035%=      5-min Rain = 0
KCO1 111831Z 14007KT 33/16 A3008 RMK A01 T03290157  RH  036%=      5-min Rain = 0
KCO1 111832Z 12007KT 33/16 A3008 RMK A01 T03280160  RH  036%=      5-min Rain = 0
KCO1 111833Z 12008KT 33/16 A3008 RMK A01 T03290160  RH  036%=      5-min Rain = 0
KCO1 111834Z 11009KT 33/16 A3008 RMK A01 T03300159  RH  036%=      5-min Rain = 0
KCO1 111835Z 13006KT 33/16 A3008 RMK A01 T03290161  RH  036%=      5-min Rain = 0
KCO1 111836Z 12008KT 33/16 A3008 RMK A01 T03310163  RH  037%=      5-min Rain = 0
KCO1 111837Z 11008KT 33/17 A3008 RMK A01 T03330165  RH  037%=      5-min Rain = 0
KCO1 111838Z 11010KT 33/16 A3008 RMK A01 T03340161  RH  035%=      5-min Rain = 0
KCO1 111839Z 12007KT 33/16 A3008 RMK A01 T03330161  RH  036%=      5-min Rain = 0
KCO1 111840Z 13005KT 33/16 A3008 RMK A01 T03320162  RH  036%=      5-min Rain = 0
KCO1 111841Z 11005KT 33/16 A3008 RMK A01 T03300158  RH  036%=      5-min Rain = 0
KCO1 111842Z 11005KT 33/16 A3008 RMK A01 T03280158  RH  036%=      5-min Rain = 0
KCO1 111843Z 12005KT 33/16 A3008 RMK A01 T03270163  RH  037%=      5-min Rain = 0
KCO1 111844Z 13006KT 33/16 A3008 RMK A01 T03280161  RH  037%=      5-min Rain = 0
KCO1 111845Z 13008KT 33/17 A3008 RMK A01 T03300165  RH  037%=      5-min Rain = 0
KCO1 111846Z 14010KT 33/16 A3007 RMK A01 T03320162  RH  036%=      5-min Rain = 0
KCO1 111847Z 16008KT 33/16 A3007 RMK A01 T03320163  RH  036%=      5-min Rain = 0
KCO1 111848Z 15009KT 33/16 A3007 RMK A01 T03340163  RH  036%=      5-min Rain = 0
KCO1 111849Z 19008KT 33/16 A3007 RMK A01 T03330160  RH  036%=      5-min Rain = 0
KCO1 111850Z 16008KT 33/16 A3007 RMK A01 T03310164  RH  037%=      5-min Rain = 0
KCO1 111851Z 14004KT 33/17 A3007 RMK A01 T03330168  RH  037%=      5-min Rain = 0
KCO1 111852Z 17008KT 34/16 A3007 RMK A01 T03370164  RH  036%=      5-min Rain = 0
KCO1 111853Z 15008KT 34/16 A3007 RMK A01 T03370163  RH  035%=      5-min Rain = 0
KCO1 111854Z 15005KT 34/16 A3007 RMK A01 T03350160  RH  035%=      5-min Rain = 0
KCO1 111855Z 11007KT 33/16 A3007 RMK A01 T03340163  RH  036%=      5-min Rain = 0
KCO1 111856Z 12004KT 33/16 A3007 RMK A01 T03330162  RH  036%=      5-min Rain = 0
KCO1 111857Z 12004KT 33/16 A3007 RMK A01 T03330163  RH  036%=      5-min Rain = 0
KCO1 111858Z 11007KT 33/16 A3007 RMK A01 T03330162  RH  036%=      5-min Rain = 0
KCO1 111859Z 11008KT 33/16 A3007 RMK A01 T03330159  RH  035%=      5-min Rain = 0
KCO1 111900Z 10006KT 33/16 A3007 RMK A01 T03320160  RH  036%=      5-min Rain = 0
KCO1 111901Z 13007KT 33/16 A3007 RMK A01 T03330163  RH  036%=      5-min Rain = 0
KCO1 111902Z 12012KT 34/16 A3007 RMK A01 T03360161  RH  035%=      5-min Rain = 0
KCO1 111903Z 15010KT 34/16 A3007 RMK A01 T03350161  RH  035%=      5-min Rain = 0
KCO1 111904Z 16011KT 34/16 A3007 RMK A01 T03350162  RH  035%=      5-min Rain = 0
KCO1 111905Z 17011KT 34/16 A3007 RMK A01 T03360163  RH  036%=      5-min Rain = 0
KCO1 111906Z 16011KT 34/16 A3006 RMK A01 T03370162  RH  035%=      5-min Rain = 0
KCO1 111907Z 14008G15KT 34/17 A3007 RMK A01 T03380167  RH  036%=      5-min Rain = 0
KCO1 111908Z 14008KT 34/16 A3007 RMK A01 T03400160  RH  034%=      5-min Rain = 0
KCO1 111909Z 13006KT 34/16 A3007 RMK A01 T03360161  RH  035%=      5-min Rain = 0
KCO1 111910Z 12008KT 34/16 A3006 RMK A01 T03350164  RH  036%=      5-min Rain = 0
KCO1 111911Z 15010KT 34/16 A3006 RMK A01 T03370160  RH  035%=      5-min Rain = 0
KCO1 111912Z 13008G13KT 34/16 A3006 RMK A01 T03380159  RH  034%=      5-min Rain = 0
KCO1 111913Z 12008KT 34/16 A3006 RMK A01 T03370161  RH  035%=      5-min Rain = 0
KCO1 111914Z 13008KT 34/16 A3006 RMK A01 T03370159  RH  035%=      5-min Rain = 0
KCO1 111915Z 16007KT 34/16 A3006 RMK A01 T03370160  RH  035%=      5-min Rain = 0
KCO1 111916Z 17006KT 34/16 A3006 RMK A01 T03370158  RH  034%=      5-min Rain = 0
KCO1 111917Z 16006KT 34/16 A3006 RMK A01 T03360160  RH  035%=      5-min Rain = 0
KCO1 111918Z 14008G13KT 34/16 A3006 RMK A01 T03370163  RH  035%=      5-min Rain = 0
KCO1 111919Z 14009KT 34/16 A3006 RMK A01 T03390158  RH  034%=      5-min Rain = 0
KCO1 111920Z 13014KT 34/16 A3006 RMK A01 T03380159  RH  034%=      5-min Rain = 0
KCO1 111921Z 13011G16KT 34/16 A3006 RMK A01 T03410157  RH  033%=      5-min Rain = 0
KCO1 111922Z 12012KT 34/16 A3006 RMK A01 T03420160  RH  034%=      5-min Rain = 0
KCO1 111923Z 12010KT 34/16 A3006 RMK A01 T03410158  RH  034%=      5-min Rain = 0
KCO1 111924Z 14007KT 34/16 A3006 RMK A01 T03390161  RH  034%=      5-min Rain = 0
KCO1 111925Z 13006KT 34/16 A3006 RMK A01 T03390156  RH  033%=      5-min Rain = 0
KCO1 111926Z 12008KT 34/16 A3006 RMK A01 T03370164  RH  035%=      5-min Rain = 0
KCO1 111927Z 11008KT 34/16 A3006 RMK A01 T03390159  RH  034%=      5-min Rain = 0
KCO1 111928Z 11007KT 34/16 A3006 RMK A01 T03390161  RH  035%=      5-min Rain = 0
KCO1 111929Z 13009KT 34/16 A3006 RMK A01 T03390161  RH  035%=      5-min Rain = 0
KCO1 111930Z 13009KT 34/16 A3005 RMK A01 T03390157  RH  034%=      5-min Rain = 0
KCO1 111931Z 13007KT 34/16 A3005 RMK A01 T03390159  RH  034%=      5-min Rain = 0
KCO1 111932Z 12009KT 34/15 A3005 RMK A01 T03410154  RH  033%=      5-min Rain = 0
KCO1 111933Z 14010KT 34/15 A3005 RMK A01 T03420152  RH  032%=      5-min Rain = 0
KCO1 111934Z 14012KT 34/16 A3005 RMK A01 T03420155  RH  033%=      5-min Rain = 0
KCO1 111935Z 16011KT 34/15 A3005 RMK A01 T03420154  RH  032%=      5-min Rain = 0
KCO1 111936Z 16010KT 34/15 A3005 RMK A01 T03390151  RH  032%=      5-min Rain = 0
KCO1 111937Z 17010KT 34/15 A3005 RMK A01 T03380154  RH  033%=      5-min Rain = 0
KCO1 111938Z 18006KT 34/15 A3005 RMK A01 T03380153  RH  033%=      5-min Rain = 0
KCO1 111939Z 16006KT 34/16 A3005 RMK A01 T03370156  RH  034%=      5-min Rain = 0
KCO1 111940Z 15012KT 34/16 A3005 RMK A01 T03390155  RH  033%=      5-min Rain = 0
KCO1 111941Z 15011KT 34/15 A3005 RMK A01 T03410149  RH  032%=      5-min Rain = 0
KCO1 111942Z 15009KT 34/15 A3005 RMK A01 T03390150  RH  032%=      5-min Rain = 0
KCO1 111943Z 13009KT 34/15 A3005 RMK A01 T03400152  RH  033%=      5-min Rain = 0
KCO1 111944Z 12007KT 34/15 A3005 RMK A01 T03400150  RH  032%=      5-min Rain = 0
KCO1 111945Z 12010KT 34/15 A3005 RMK A01 T03390154  RH  033%=      5-min Rain = 0
KCO1 111946Z 11009KT 34/15 A3005 RMK A01 T03390150  RH  032%=      5-min Rain = 0
KCO1 111947Z 10009KT 34/15 A3005 RMK A01 T03380153  RH  033%=      5-min Rain = 0
KCO1 111948Z 13011KT 34/15 A3005 RMK A01 T03390154  RH  033%=      5-min Rain = 0
KCO1 111949Z 14012KT 34/16 A3005 RMK A01 T03430155  RH  032%=      5-min Rain = 0
KCO1 111950Z 13010KT 34/15 A3005 RMK A01 T03440153  RH  032%=      5-min Rain = 0
KCO1 111951Z 15009KT 34/15 A3005 RMK A01 T03430152  RH  032%=      5-min Rain = 0
KCO1 111952Z 13008KT 34/15 A3005 RMK A01 T03430153  RH  032%=      5-min Rain = 0
KCO1 111953Z 15007KT 34/15 A3004 RMK A01 T03420153  RH  032%=      5-min Rain = 0
KCO1 111954Z 11007G15KT 34/16 A3005 RMK A01 T03420156  RH  033%=      5-min Rain = 0
KCO1 111955Z 13013KT 34/16 A3004 RMK A01 T03420156  RH  033%=      5-min Rain = 0
KCO1 111956Z 12008KT 34/16 A3004 RMK A01 T03430155  RH  033%=      5-min Rain = 0
KCO1 111957Z 12013G18KT 34/16 A3004 RMK A01 T03430156  RH  033%=      5-min Rain = 0
KCO1 111958Z 12014KT 34/16 A3004 RMK A01 T03440155  RH  032%=      5-min Rain = 0
KCO1 111959Z 11009KT 34/16 A3004 RMK A01 T03440157  RH  033%=      5-min Rain = 0
KCO1 112000Z 10011KT 35/16 A3004 RMK A01 T03460158  RH  033%=      5-min Rain = 0
KCO1 112001Z 11013G18KT 35/16 A3004 RMK A01 T03460157  RH  033%=      5-min Rain = 0
KCO1 112002Z 13015KT 35/15 A3004 RMK A01 T03450154  RH  032%=      5-min Rain = 0
KCO1 112003Z 15013KT 34/15 A3004 RMK A01 T03430153  RH  032%=      5-min Rain = 0
KCO1 112004Z 14010KT 34/15 A3004 RMK A01 T03420153  RH  032%=      5-min Rain = 0
KCO1 112005Z 13009KT 34/16 A3004 RMK A01 T03420158  RH  033%=      5-min Rain = 0
KCO1 112006Z 15012KT 34/15 A3004 RMK A01 T03440152  RH  032%=      5-min Rain = 0
KCO1 112007Z 15009KT 34/16 A3004 RMK A01 T03440156  RH  033%=      5-min Rain = 0
KCO1 112008Z 16008KT 35/16 A3004 RMK A01 T03450155  RH  032%=      5-min Rain = 0
KCO1 112009Z 16008KT 35/16 A3004 RMK A01 T03460157  RH  033%=      5-min Rain = 0
KCO1 112010Z 15009KT 35/16 A3004 RMK A01 T03470156  RH  032%=      5-min Rain = 0
KCO1 112011Z 15008KT 35/15 A3004 RMK A01 T03460153  RH  031%=      5-min Rain = 0
KCO1 112012Z 16008KT 34/15 A3004 RMK A01 T03440153  RH  032%=      5-min Rain = 0
KCO1 112013Z 13010KT 35/16 A3004 RMK A01 T03450156  RH  032%=      5-min Rain = 0
KCO1 112014Z 12009G14KT 35/15 A3004 RMK A01 T03470151  RH  031%=      5-min Rain = 0
KCO1 112015Z 13007KT 35/15 A3004 RMK A01 T03450153  RH  032%=      5-min Rain = 0
KCO1 112016Z 14011KT 35/15 A3004 RMK A01 T03450153  RH  032%=      5-min Rain = 0
KCO1 112017Z 13007KT 35/15 A3004 RMK A01 T03450151  RH  031%=      5-min Rain = 0
KCO1 112018Z 12007KT 34/16 A3003 RMK A01 T03430155  RH  032%=      5-min Rain = 0
KCO1 112019Z 13010KT 34/16 A3003 RMK A01 T03440156  RH  032%=      5-min Rain = 0
KCO1 112020Z 14012G18KT 35/16 A3003 RMK A01 T03480159  RH  032%=      5-min Rain = 0
KCO1 112021Z 14017KT 35/16 A3003 RMK A01 T03520155  RH  031%=      5-min Rain = 0
KCO1 112022Z 13012KT 35/15 A3003 RMK A01 T03500154  RH  031%=      5-min Rain = 0
KCO1 112023Z 15011KT 35/16 A3003 RMK A01 T03490156  RH  032%=      5-min Rain = 0
KCO1 112024Z 17010KT 35/15 A3003 RMK A01 T03490154  RH  031%=      5-min Rain = 0
KCO1 112025Z 14009G15KT 35/16 A3003 RMK A01 T03480156  RH  032%=      5-min Rain = 0
KCO1 112026Z 11011KT 35/16 A3003 RMK A01 T03490159  RH  032%=      5-min Rain = 0
KCO1 112027Z 11011KT 35/16 A3003 RMK A01 T03500155  RH  031%=      5-min Rain = 0
KCO1 112028Z 11011KT 35/15 A3003 RMK A01 T03470154  RH  032%=      5-min Rain = 0
KCO1 112029Z 11010KT 35/15 A3003 RMK A01 T03450152  RH  032%=      5-min Rain = 0
KCO1 112030Z 10010KT 34/16 A3003 RMK A01 T03440155  RH  032%=      5-min Rain = 0
KCO1 112031Z 11011KT 35/16 A3003 RMK A01 T03450156  RH  032%=      5-min Rain = 0
KCO1 112032Z 12013KT 35/16 A3003 RMK A01 T03470155  RH  032%=      5-min Rain = 0
KCO1 112033Z 12013KT 35/15 A3003 RMK A01 T03490154  RH  031%=      5-min Rain = 0
KCO1 112034Z 13009KT 35/15 A3002 RMK A01 T03470151  RH  031%=      5-min Rain = 0
KCO1 112035Z 13015KT 35/15 A3002 RMK A01 T03460154  RH  032%=      5-min Rain = 0
KCO1 112036Z 12016KT 35/15 A3002 RMK A01 T03470152  RH  031%=      5-min Rain = 0
KCO1 112037Z 12016KT 35/15 A3002 RMK A01 T03460148  RH  031%=      5-min Rain = 0
KCO1 112038Z 12013KT 34/15 A3002 RMK A01 T03420149  RH  031%=      5-min Rain = 0
KCO1 112039Z 14012KT 34/15 A3002 RMK A01 T03440151  RH  031%=      5-min Rain = 0
KCO1 112040Z 13013KT 35/15 A3002 RMK A01 T03460148  RH  030%=      5-min Rain = 0
KCO1 112041Z 14009G15KT 35/15 A3002 RMK A01 T03450148  RH  031%=      5-min Rain = 0
KCO1 112042Z 14010G16KT 35/15 A3002 RMK A01 T03450150  RH  031%=      5-min Rain = 0
KCO1 112043Z 14011KT 35/15 A3002 RMK A01 T03460147  RH  030%=      5-min Rain = 0
KCO1 112044Z 14008KT 35/15 A3002 RMK A01 T03460148  RH  031%=      5-min Rain = 0
KCO1 112045Z 13012KT 35/15 A3002 RMK A01 T03450150  RH  031%=      5-min Rain = 0
KCO1 112046Z 13010KT 35/15 A3002 RMK A01 T03460150  RH  031%=      5-min Rain = 0
KCO1 112047Z 12011KT 35/15 A3002 RMK A01 T03460152  RH  031%=      5-min Rain = 0
KCO1 112048Z 14009KT 35/15 A3002 RMK A01 T03470150  RH  031%=      5-min Rain = 0
KCO1 112049Z 12006KT 35/15 A3002 RMK A01 T03460151  RH  031%=      5-min Rain = 0
KCO1 112050Z 10011KT 35/15 A3002 RMK A01 T03460154  RH  032%=      5-min Rain = 0
KCO1 112051Z 12009KT 35/15 A3002 RMK A01 T03460150  RH  031%=      5-min Rain = 0
KCO1 112052Z 13010KT 35/16 A3002 RMK A01 T03450156  RH  032%=      5-min Rain = 0
KCO1 112053Z 15011KT 35/15 A3002 RMK A01 T03490150  RH  031%=      5-min Rain = 0
KCO1 112054Z 15010KT 35/15 A3002 RMK A01 T03490148  RH  030%=      5-min Rain = 0
KCO1 112055Z 14007KT 35/15 A3002 RMK A01 T03480149  RH  030%=      5-min Rain = 0
KCO1 112056Z 15005KT 35/15 A3002 RMK A01 T03490151  RH  031%=      5-min Rain = 0
KCO1 112057Z 16007KT 35/16 A3001 RMK A01 T03510155  RH  031%=      5-min Rain = 0
KCO1 112058Z 13009KT 35/15 A3001 RMK A01 T03530151  RH  030%=      5-min Rain = 0
KCO1 112059Z 11014KT 35/15 A3002 RMK A01 T03530149  RH  030%=      5-min Rain = 0
KCO1 112100Z 11012KT 35/15 A3001 RMK A01 T03490147  RH  030%=      5-min Rain = 0
KCO1 112101Z 12012KT 35/15 A3001 RMK A01 T03470149  RH  031%=      5-min Rain = 0
KCO1 112102Z 14014KT 35/15 A3001 RMK A01 T03490149  RH  030%=      5-min Rain = 0
KCO1 112103Z 12012KT 35/15 A3001 RMK A01 T03510148  RH  030%=      5-min Rain = 0
KCO1 112104Z 15010KT 35/15 A3001 RMK A01 T03510147  RH  029%=      5-min Rain = 0
KCO1 112105Z 16008KT 35/15 A3001 RMK A01 T03510148  RH  030%=      5-min Rain = 0
KCO1 112106Z 15012G17KT 35/15 A3001 RMK A01 T03510147  RH  029%=      5-min Rain = 0
KCO1 112107Z 15015KT 35/15 A3001 RMK A01 T03510145  RH  029%=      5-min Rain = 0
KCO1 112108Z 15011KT 35/14 A3001 RMK A01 T03510144  RH  029%=      5-min Rain = 0
KCO1 112109Z 14012KT 35/15 A3001 RMK A01 T03510146  RH  029%=      5-min Rain = 0
KCO1 112110Z 15012KT 35/14 A3001 RMK A01 T03520144  RH  029%=      5-min Rain = 0
KCO1 112111Z 14007KT 35/14 A3001 RMK A01 T03500143  RH  029%=      5-min Rain = 0
KCO1 112112Z 14006KT 35/15 A3001 RMK A01 T03490146  RH  030%=      5-min Rain = 0
KCO1 112113Z 11006KT 35/14 A3001 RMK A01 T03480143  RH  029%=      5-min Rain = 0
KCO1 112114Z 11005KT 35/15 A3001 RMK A01 T03470146  RH  030%=      5-min Rain = 0
KCO1 112115Z 12011G16KT 35/14 A3001 RMK A01 T03470144  RH  030%=      5-min Rain = 0
KCO1 112116Z 12013KT 35/14 A3001 RMK A01 T03460142  RH  029%=      5-min Rain = 0
KCO1 112117Z 15013G18KT 35/15 A3001 RMK A01 T03480146  RH  030%=      5-min Rain = 0
KCO1 112118Z 16010KT 35/14 A3001 RMK A01 T03490142  RH  029%=      5-min Rain = 0
KCO1 112119Z 16010KT 35/15 A3001 RMK A01 T03490145  RH  029%=      5-min Rain = 0
KCO1 112120Z 15011KT 35/15 A3001 RMK A01 T03500147  RH  030%=      5-min Rain = 0
KCO1 112121Z 14008KT 35/14 A3001 RMK A01 T03510144  RH  029%=      5-min Rain = 0
KCO1 112122Z 13006KT 35/15 A30 RMK A01 T03510147  RH  030%=      5-min Rain = 0
KCO1 112123Z 13010G19KT 36/15 A30 RMK A01 T03550147  RH  029%=      5-min Rain = 0
KCO1 112124Z 12017KT 36/14 A30 RMK A01 T03550144  RH  028%=      5-min Rain = 0
KCO1 112125Z 12015KT 35/15 A30 RMK A01 T03510146  RH  029%=      5-min Rain = 0
KCO1 112126Z 13013KT 35/15 A30 RMK A01 T03500145  RH  029%=      5-min Rain = 0
KCO1 112127Z 12012KT 35/14 A30 RMK A01 T03500144  RH  029%=      5-min Rain = 0
KCO1 112128Z 11012KT 35/14 A30 RMK A01 T03490144  RH  029%=      5-min Rain = 0
KCO1 112129Z 12009KT 35/15 A30 RMK A01 T03470146  RH  030%=      5-min Rain = 0
KCO1 112130Z 10011KT 35/15 A30 RMK A01 T03470149  RH  031%=      5-min Rain = 0
KCO1 112131Z 10014G19KT 35/15 A30 RMK A01 T03480145  RH  030%=      5-min Rain = 0
KCO1 112132Z 12014G20KT 35/15 A30 RMK A01 T03480149  RH  030%=      5-min Rain = 0
KCO1 112133Z 14015KT 35/15 A30 RMK A01 T03520149  RH  030%=      5-min Rain = 0
KCO1 112134Z 14017KT 36/15 A30 RMK A01 T03550149  RH  029%=      5-min Rain = 0
KCO1 112135Z 16011G18KT 35/14 A30 RMK A01 T03530142  RH  028%=      5-min Rain = 0
KCO1 112136Z 15008KT 35/15 A2999 RMK A01 T03480145  RH  030%=      5-min Rain = 0
KCO1 112137Z 14016KT 35/15 A30 RMK A01 T03470146  RH  030%=      5-min Rain = 0
KCO1 112138Z 13014KT 35/15 A30 RMK A01 T03470145  RH  030%=      5-min Rain = 0
KCO1 112139Z 13010KT 35/15 A2999 RMK A01 T03470145  RH  030%=      5-min Rain = 0
KCO1 112140Z 13011KT 35/15 A2999 RMK A01 T03470145  RH  030%=      5-min Rain = 0
KCO1 112141Z 12010KT 35/15 A2999 RMK A01 T03480146  RH  030%=      5-min Rain = 0
KCO1 112142Z 12008KT 35/15 A2999 RMK A01 T03480145  RH  030%=      5-min Rain = 0
KCO1 112143Z 11009KT 35/15 A2999 RMK A01 T03480147  RH  030%=      5-min Rain = 0
KCO1 112144Z 13012KT 35/15 A2999 RMK A01 T03480145  RH  030%=      5-min Rain = 0
KCO1 112145Z 15013KT 35/14 A2999 RMK A01 T03490142  RH  029%=      5-min Rain = 0
KCO1 112146Z 13011KT 35/14 A2999 RMK A01 T03480141  RH  029%=      5-min Rain = 0
KCO1 112147Z 13010KT 35/14 A2999 RMK A01 T03480143  RH  029%=      5-min Rain = 0
KCO1 112148Z 13011KT 35/14 A2999 RMK A01 T03500143  RH  029%=      5-min Rain = 0
KCO1 112149Z 12008KT 35/14 A2999 RMK A01 T03500144  RH  029%=      5-min Rain = 0
KCO1 112150Z 13011KT 35/15 A2999 RMK A01 T03500147  RH  030%=      5-min Rain = 0
KCO1 112151Z 12009KT 35/15 A2999 RMK A01 T03510145  RH  029%=      5-min Rain = 0
KCO1 112152Z 12008KT 35/15 A2999 RMK A01 T03520145  RH  029%=      5-min Rain = 0
KCO1 112153Z 11011KT 35/14 A2999 RMK A01 T03500143  RH  029%=      5-min Rain = 0
KCO1 112154Z 11011KT 35/14 A2999 RMK A01 T03500144  RH  029%=      5-min Rain = 0
KCO1 112155Z 14009KT 35/14 A2999 RMK A01 T03490143  RH  029%=      5-min Rain = 0
KCO1 112156Z 17010KT 35/14 A2999 RMK A01 T03490143  RH  029%=      5-min Rain = 0
KCO1 112157Z 18010KT 35/14 A2998 RMK A01 T03510144  RH  029%=      5-min Rain = 0
KCO1 112158Z 18010KT 35/14 A2998 RMK A01 T03510144  RH  029%=      5-min Rain = 0
KCO1 112159Z 17011KT 35/14 A2998 RMK A01 T03510142  RH  029%=      5-min Rain = 0
KCO1 112200Z 17011KT 35/14 A2998 RMK A01 T03500142  RH  029%=      5-min Rain = 0
KCO1 112201Z 16010KT 35/14 A2998 RMK A01 T03500142  RH  029%=      5-min Rain = 0
KCO1 112202Z 15009KT 35/14 A2998 RMK A01 T03500144  RH  029%=      5-min Rain = 0
KCO1 112203Z 14008G13KT 35/14 A2998 RMK A01 T03500144  RH  029%=      5-min Rain = 0
KCO1 112204Z 12012G17KT 35/15 A2998 RMK A01 T03520146  RH  029%=      5-min Rain = 0
KCO1 112205Z 12014KT 35/14 A2998 RMK A01 T03530142  RH  028%=      5-min Rain = 0
KCO1 112206Z 12011KT 35/14 A2998 RMK A01 T03520142  RH  028%=      5-min Rain = 0
KCO1 112207Z 11010KT 35/14 A2998 RMK A01 T03510142  RH  029%=      5-min Rain = 0
KCO1 112208Z 13014KT 35/14 A2998 RMK A01 T03520144  RH  029%=      5-min Rain = 0
KCO1 112209Z 13016KT 35/14 A2998 RMK A01 T03530141  RH  028%=      5-min Rain = 0
KCO1 112210Z 15013KT 35/14 A2998 RMK A01 T03520141  RH  028%=      5-min Rain = 0
KCO1 112211Z 15013KT 35/14 A2998 RMK A01 T03520140  RH  028%=      5-min Rain = 0
KCO1 112212Z 13011KT 35/14 A2998 RMK A01 T03510141  RH  028%=      5-min Rain = 0
KCO1 112213Z 13009KT 35/14 A2998 RMK A01 T03500141  RH  029%=      5-min Rain = 0
KCO1 112214Z 13008KT 35/14 A2998 RMK A01 T03500139  RH  028%=      5-min Rain = 0
KCO1 112215Z 15009KT 35/14 A2998 RMK A01 T03500140  RH  028%=      5-min Rain = 0
KCO1 112216Z 15006KT 35/14 A2998 RMK A01 T03490139  RH  028%=      5-min Rain = 0
KCO1 112217Z 12004KT 35/14 A2998 RMK A01 T03480141  RH  029%=      5-min Rain = 0
KCO1 112218Z 11009KT 35/15 A2998 RMK A01 T03500149  RH  030%=      5-min Rain = 0
KCO1 112219Z 12010KT 35/15 A2998 RMK A01 T03520145  RH  029%=      5-min Rain = 0
KCO1 112220Z 13011KT 35/14 A2998 RMK A01 T03520142  RH  028%=      5-min Rain = 0
KCO1 112221Z 14012KT 35/14 A2998 RMK A01 T03520143  RH  029%=      5-min Rain = 0
KCO1 112222Z 13013KT 35/15 A2998 RMK A01 T03510145  RH  029%=      5-min Rain = 0
KCO1 112223Z 13013KT 35/14 A2998 RMK A01 T03510142  RH  028%=      5-min Rain = 0
KCO1 112224Z 14014KT 35/14 A2998 RMK A01 T03510142  RH  029%=      5-min Rain = 0
KCO1 112225Z 13014KT 35/14 A2998 RMK A01 T03510142  RH  029%=      5-min Rain = 0
KCO1 112226Z 13008KT 35/14 A2998 RMK A01 T03520139  RH  028%=      5-min Rain = 0
KCO1 112227Z 13008KT 35/14 A2998 RMK A01 T03490140  RH  029%=      5-min Rain = 0
KCO1 112228Z 13012KT 35/14 A2998 RMK A01 T03500144  RH  029%=      5-min Rain = 0
KCO1 112229Z 11011KT 35/14 A2998 RMK A01 T03510139  RH  028%=      5-min Rain = 0
KCO1 112230Z 13008KT 35/14 A2998 RMK A01 T03500141  RH  029%=      5-min Rain = 0
KCO1 112231Z 13010KT 35/15 A2997 RMK A01 T03520145  RH  029%=      5-min Rain = 0
KCO1 112232Z 12009KT 35/14 A2997 RMK A01 T03540141  RH  028%=      5-min Rain = 0
KCO1 112233Z 13008KT 35/14 A2997 RMK A01 T03530141  RH  028%=      5-min Rain = 0
KCO1 112234Z 12015KT 35/14 A2997 RMK A01 T03520141  RH  028%=      5-min Rain = 0
KCO1 112235Z 14012KT 35/14 A2997 RMK A01 T03520140  RH  028%=      5-min Rain = 0
KCO1 112236Z 13010KT 35/14 A2997 RMK A01 T03520140  RH  028%=      5-min Rain = 0
KCO1 112237Z 12011KT 35/14 A2997 RMK A01 T03520141  RH  028%=      5-min Rain = 0
KCO1 112238Z 12010KT 35/14 A2997 RMK A01 T03510139  RH  028%=      5-min Rain = 0
KCO1 112239Z 13010KT 35/14 A2997 RMK A01 T03510140  RH  028%=      5-min Rain = 0
KCO1 112240Z 14011KT 35/14 A2997 RMK A01 T03500137  RH  028%=      5-min Rain = 0
KCO1 112241Z 16008KT 35/14 A2997 RMK A01 T03490137  RH  028%=      5-min Rain = 0
KCO1 112242Z 14007KT 35/14 A2997 RMK A01 T03490141  RH  029%=      5-min Rain = 0
KCO1 112243Z 12009KT 35/15 A2997 RMK A01 T03520145  RH  029%=      5-min Rain = 0
KCO1 112244Z 13010G16KT 36/14 A2997 RMK A01 T03560142  RH  028%=      5-min Rain = 0
KCO1 112245Z 13010KT 36/14 A2997 RMK A01 T03560141  RH  028%=      5-min Rain = 0
KCO1 112246Z 12012KT 36/14 A2997 RMK A01 T03560139  RH  027%=      5-min Rain = 0
KCO1 112247Z 12012KT 35/14 A2997 RMK A01 T03540137  RH  027%=      5-min Rain = 0
KCO1 112248Z 13012KT 35/13 A2997 RMK A01 T03520134  RH  027%=      5-min Rain = 0
KCO1 112249Z 13008KT 35/14 A2997 RMK A01 T03510138  RH  028%=      5-min Rain = 0
KCO1 112250Z 12013KT 35/14 A2997 RMK A01 T03530141  RH  028%=      5-min Rain = 0
KCO1 112251Z 12013KT 35/14 A2997 RMK A01 T03530136  RH  027%=      5-min Rain = 0
KCO1 112252Z 13012KT 35/14 A2997 RMK A01 T03520136  RH  027%=      5-min Rain = 0
KCO1 112253Z 13011KT 35/14 A2997 RMK A01 T03510135  RH  027%=      5-min Rain = 0
KCO1 112254Z 13013KT 35/14 A2997 RMK A01 T03510138  RH  028%=      5-min Rain = 0
KCO1 112255Z 12009KT 35/14 A2997 RMK A01 T03520135  RH  027%=      5-min Rain = 0
KCO1 112256Z 12008KT 35/14 A2997 RMK A01 T03520135  RH  027%=      5-min Rain = 0
KCO1 112257Z 15009KT 35/14 A2997 RMK A01 T03520136  RH  027%=      5-min Rain = 0
KCO1 112258Z 16012KT 35/14 A2997 RMK A01 T03530137  RH  027%=      5-min Rain = 0
KCO1 112259Z 15013KT 35/14 A2997 RMK A01 T03540135  RH  027%=      5-min Rain = 0
KCO1 112300Z 15012KT 35/13 A2997 RMK A01 T03530132  RH  027%=      5-min Rain = 0
KCO1 112301Z 14010KT 35/13 A2997 RMK A01 T03510134  RH  027%=      5-min Rain = 0
KCO1 112302Z 15008KT 35/13 A2997 RMK A01 T03500132  RH  027%=      5-min Rain = 0
KCO1 112303Z 15008KT 35/14 A2997 RMK A01 T03500136  RH  028%=      5-min Rain = 0
KCO1 112304Z 14009KT 35/13 A2997 RMK A01 T03500134  RH  027%=      5-min Rain = 0
KCO1 112305Z 15007KT 35/13 A2997 RMK A01 T03510133  RH  027%=      5-min Rain = 0
KCO1 112306Z 15006KT 35/13 A2997 RMK A01 T03500132  RH  027%=      5-min Rain = 0
KCO1 112307Z 14007KT 35/13 A2997 RMK A01 T03500134  RH  027%=      5-min Rain = 0
KCO1 112308Z 16006KT 35/13 A2997 RMK A01 T03490132  RH  027%=      5-min Rain = 0
KCO1 112309Z 19005KT 35/13 A2997 RMK A01 T03490131  RH  027%=      5-min Rain = 0
KCO1 112310Z 17007KT 35/13 A2997 RMK A01 T03490134  RH  027%=      5-min Rain = 0
KCO1 112311Z 18008KT 35/13 A2997 RMK A01 T03500134  RH  027%=      5-min Rain = 0
KCO1 112312Z 18012KT 35/13 A2997 RMK A01 T03510134  RH  027%=      5-min Rain = 0
KCO1 112313Z 17010KT 35/13 A2997 RMK A01 T03510131  RH  027%=      5-min Rain = 0
KCO1 112314Z 16009KT 35/13 A2997 RMK A01 T03500132  RH  027%=      5-min Rain = 0
KCO1 112315Z 16007KT 35/13 A2997 RMK A01 T03500133  RH  027%=      5-min Rain = 0
KCO1 112316Z 15009KT 35/14 A2997 RMK A01 T03510135  RH  027%=      5-min Rain = 0
KCO1 112317Z 16009KT 35/13 A2997 RMK A01 T03520133  RH  027%=      5-min Rain = 0
KCO1 112318Z 18010KT 35/14 A2997 RMK A01 T03520136  RH  027%=      5-min Rain = 0
KCO1 112319Z 18010KT 35/14 A2997 RMK A01 T03530137  RH  027%=      5-min Rain = 0
KCO1 112320Z 17010KT 35/14 A2997 RMK A01 T03530138  RH  028%=      5-min Rain = 0
KCO1 112321Z 16009KT 35/13 A2997 RMK A01 T03520132  RH  027%=      5-min Rain = 0
KCO1 112322Z 17009KT 35/14 A2997 RMK A01 T03500135  RH  028%=      5-min Rain = 0
KCO1 112323Z 15009KT 35/14 A2997 RMK A01 T03510138  RH  028%=      5-min Rain = 0
KCO1 112324Z 15009G15KT 35/14 A2997 RMK A01 T03530138  RH  028%=      5-min Rain = 0
KCO1 112325Z 15013KT 35/14 A2997 RMK A01 T03530136  RH  027%=      5-min Rain = 0
KCO1 112326Z 16012KT 35/13 A2997 RMK A01 T03530134  RH  027%=      5-min Rain = 0
KCO1 112327Z 15011KT 35/13 A2997 RMK A01 T03510133  RH  027%=      5-min Rain = 0
KCO1 112328Z 14011KT 35/14 A2997 RMK A01 T03500135  RH  027%=      5-min Rain = 0
KCO1 112329Z 14012KT 35/13 A2997 RMK A01 T03500133  RH  027%=      5-min Rain = 0
KCO1 112330Z 15012KT 35/13 A2997 RMK A01 T03510133  RH  027%=      5-min Rain = 0
KCO1 112331Z 16011KT 35/13 A2997 RMK A01 T03510133  RH  027%=      5-min Rain = 0
KCO1 112332Z 14008KT 35/13 A2997 RMK A01 T03510133  RH  027%=      5-min Rain = 0
KCO1 112333Z 15008KT 35/13 A2997 RMK A01 T03510134  RH  027%=      5-min Rain = 0
KCO1 112334Z 13010KT 35/13 A2997 RMK A01 T03510134  RH  027%=      5-min Rain = 0
KCO1 112335Z 13009KT 35/13 A2997 RMK A01 T03500133  RH  027%=      5-min Rain = 0
KCO1 112336Z 15010KT 35/13 A2997 RMK A01 T03500133  RH  027%=      5-min Rain = 0
KCO1 112337Z 15013KT 35/13 A2997 RMK A01 T03500134  RH  027%=      5-min Rain = 0
KCO1 112338Z 15014KT 35/13 A2997 RMK A01 T03490133  RH  027%=      5-min Rain = 0
KCO1 112339Z 15012KT 35/13 A2997 RMK A01 T03490134  RH  027%=      5-min Rain = 0
KCO1 112340Z 15009KT 35/14 A2997 RMK A01 T03490135  RH  028%=      5-min Rain = 0
KCO1 112341Z 15010KT 35/14 A2997 RMK A01 T03500135  RH  027%=      5-min Rain = 0
KCO1 112342Z 15010KT 35/13 A2997 RMK A01 T03500133  RH  027%=      5-min Rain = 0
KCO1 112343Z 16010KT 35/13 A2997 RMK A01 T03490133  RH  027%=      5-min Rain = 0
KCO1 112344Z 15008KT 35/13 A2997 RMK A01 T03490133  RH  027%=      5-min Rain = 0
KCO1 112345Z 13009KT 35/13 A2997 RMK A01 T03470132  RH  027%=      5-min Rain = 0
KCO1 112346Z 13012KT 35/13 A2997 RMK A01 T03470132  RH  027%=      5-min Rain = 0
KCO1 112347Z 13010KT 35/14 A2997 RMK A01 T03470136  RH  028%=      5-min Rain = 0
KCO1 112348Z 13009KT 35/14 A2997 RMK A01 T03490135  RH  028%=      5-min Rain = 0
KCO1 112349Z 14010KT 35/14 A2997 RMK A01 T03490135  RH  028%=      5-min Rain = 0
KCO1 112350Z 13011KT 35/14 A2997 RMK A01 T03480136  RH  028%=      5-min Rain = 0
KCO1 112351Z 13009KT 35/14 A2997 RMK A01 T03480137  RH  028%=      5-min Rain = 0
KCO1 112352Z 13007KT 35/14 A2997 RMK A01 T03480137  RH  028%=      5-min Rain = 0
KCO1 112353Z 16008KT 35/14 A2997 RMK A01 T03480138  RH  028%=      5-min Rain = 0
KCO1 112354Z 16008KT 35/14 A2997 RMK A01 T03480135  RH  028%=      5-min Rain = 0
KCO1 112355Z 16009KT 35/14 A2997 RMK A01 T03470135  RH  028%=      5-min Rain = 0
KCO1 112356Z 16010KT 35/14 A2996 RMK A01 T03460135  RH  028%=      5-min Rain = 0
KCO1 112357Z 17012KT 35/13 A2996 RMK A01 T03460134  RH  028%=      5-min Rain = 0
KCO1 112358Z 17010KT 35/13 A2996 RMK A01 T03450134  RH  028%=      5-min Rain = 0
KCO1 112359Z 17010KT 35/14 A2997 RMK A01 T03450135  RH  028%=      5-min Rain = 0
KCO1 120000Z 17010KT 35/13 A2997 RMK A01 T03450134  RH  028%=      5-min Rain = 0
KCO1 120001Z 14009KT 34/13 A2997 RMK A01 T03440134  RH  028%=      5-min Rain = 0
KCO1 120002Z 13009KT 34/13 A2997 RMK A01 T03440133  RH  028%=      5-min Rain = 0
KCO1 120003Z 14009KT 34/13 A2997 RMK A01 T03440131  RH  028%=      5-min Rain = 0
KCO1 120004Z 13009KT 34/13 A2997 RMK A01 T03440133  RH  028%=      5-min Rain = 0
KCO1 120005Z 13011KT 34/13 A2997 RMK A01 T03440131  RH  028%=      5-min Rain = 0
KCO1 120006Z 14011KT 35/13 A2997 RMK A01 T03450132  RH  028%=      5-min Rain = 0
KCO1 120007Z 14012KT 35/13 A2996 RMK A01 T03450133  RH  028%=      5-min Rain = 0
KCO1 120008Z 14012KT 35/13 A2996 RMK A01 T03450133  RH  028%=      5-min Rain = 0
KCO1 120009Z 14013KT 35/13 A2996 RMK A01 T03450134  RH  028%=      5-min Rain = 0
KCO1 120010Z 15012KT 35/13 A2996 RMK A01 T03450132  RH  028%=      5-min Rain = 0
KCO1 120011Z 16011KT 35/13 A2996 RMK A01 T03450133  RH  028%=      5-min Rain = 0
KCO1 120012Z 16011KT 35/13 A2996 RMK A01 T03450131  RH  028%=      5-min Rain = 0
KCO1 120013Z 15011KT 35/13 A2997 RMK A01 T03450131  RH  028%=      5-min Rain = 0
KCO1 120014Z 14009KT 35/13 A2997 RMK A01 T03460131  RH  027%=      5-min Rain = 0
KCO1 120015Z 15012KT 35/13 A2997 RMK A01 T03460130  RH  027%=      5-min Rain = 0
KCO1 120016Z 15012KT 35/13 A2997 RMK A01 T03460125  RH  026%=      5-min Rain = 0
KCO1 120017Z 15011KT 35/13 A2997 RMK A01 T03460126  RH  026%=      5-min Rain = 0
KCO1 120018Z 16010KT 35/13 A2997 RMK A01 T03460125  RH  026%=      5-min Rain = 0
KCO1 120019Z 16009KT 35/13 A2997 RMK A01 T03460129  RH  027%=      5-min Rain = 0
KCO1 120020Z 15009KT 35/13 A2997 RMK A01 T03460134  RH  028%=      5-min Rain = 0
KCO1 120021Z 15011KT 35/14 A2997 RMK A01 T03460137  RH  028%=      5-min Rain = 0
KCO1 120022Z 15010KT 35/14 A2997 RMK A01 T03460135  RH  028%=      5-min Rain = 0
KCO1 120023Z 14010KT 35/13 A2997 RMK A01 T03460134  RH  028%=      5-min Rain = 0
KCO1 120024Z 13010KT 35/13 A2997 RMK A01 T03460134  RH  028%=      5-min Rain = 0
KCO1 120025Z 13007KT 34/14 A2997 RMK A01 T03440135  RH  028%=      5-min Rain = 0
KCO1 120026Z 14008KT 34/14 A2997 RMK A01 T03430137  RH  029%=      5-min Rain = 0
KCO1 120027Z 13007KT 34/14 A2997 RMK A01 T03420139  RH  029%=      5-min Rain = 0
KCO1 120028Z 13007KT 34/14 A2997 RMK A01 T03420137  RH  029%=      5-min Rain = 0
KCO1 120029Z 14012KT 34/14 A2997 RMK A01 T03430139  RH  029%=      5-min Rain = 0
KCO1 120030Z 15011KT 34/14 A2996 RMK A01 T03430137  RH  029%=      5-min Rain = 0
KCO1 120031Z 15010KT 34/14 A2996 RMK A01 T03430137  RH  029%=      5-min Rain = 0
KCO1 120032Z 14009KT 34/14 A2996 RMK A01 T03440139  RH  029%=      5-min Rain = 0
KCO1 120033Z 14009KT 34/14 A2996 RMK A01 T03440142  RH  030%=      5-min Rain = 0
KCO1 120034Z 15009KT 34/14 A2996 RMK A01 T03440142  RH  030%=      5-min Rain = 0
KCO1 120035Z 15011KT 34/14 A2996 RMK A01 T03430142  RH  030%=      5-min Rain = 0
KCO1 120036Z 15010KT 34/14 A2996 RMK A01 T03430141  RH  030%=      5-min Rain = 0
KCO1 120037Z 16010KT 34/14 A2996 RMK A01 T03430141  RH  030%=      5-min Rain = 0
KCO1 120038Z 16009KT 34/14 A2996 RMK A01 T03420140  RH  030%=      5-min Rain = 0
KCO1 120039Z 16010KT 34/14 A2996 RMK A01 T03420139  RH  029%=      5-min Rain = 0
KCO1 120040Z 16009KT 34/14 A2996 RMK A01 T03420139  RH  030%=      5-min Rain = 0
KCO1 120041Z 16011KT 34/14 A2996 RMK A01 T03410139  RH  030%=      5-min Rain = 0
KCO1 120042Z 15010KT 34/14 A2996 RMK A01 T03410138  RH  030%=      5-min Rain = 0
KCO1 120043Z 15010KT 34/14 A2996 RMK A01 T03400140  RH  030%=      5-min Rain = 0
KCO1 120044Z 15009KT 34/14 A2996 RMK A01 T03400142  RH  030%=      5-min Rain = 0
KCO1 120045Z 15011KT 34/14 A2996 RMK A01 T03400143  RH  031%=      5-min Rain = 0
KCO1 120046Z 15010KT 34/14 A2996 RMK A01 T03390142  RH  030%=      5-min Rain = 0
KCO1 120047Z 15010KT 34/14 A2997 RMK A01 T03380143  RH  031%=      5-min Rain = 0
KCO1 120048Z 13011KT 34/15 A2997 RMK A01 T03390145  RH  031%=      5-min Rain = 0
KCO1 120049Z 13011KT 34/15 A2997 RMK A01 T03380145  RH  031%=      5-min Rain = 0
KCO1 120050Z 14010KT 34/15 A2997 RMK A01 T03370146  RH  032%=      5-min Rain = 0
KCO1 120051Z 14010KT 34/15 A2997 RMK A01 T03360146  RH  032%=      5-min Rain = 0
KCO1 120052Z 14010KT 34/15 A2997 RMK A01 T03360146  RH  032%=      5-min Rain = 0
KCO1 120053Z 13008KT 34/15 A2997 RMK A01 T03360146  RH  032%=      5-min Rain = 0
KCO1 120054Z 13007KT 34/15 A2997 RMK A01 T03360148  RH  032%=      5-min Rain = 0
KCO1 120055Z 13010KT 34/15 A2997 RMK A01 T03360148  RH  032%=      5-min Rain = 0
KCO1 120056Z 14010KT 34/15 A2997 RMK A01 T03360147  RH  032%=      5-min Rain = 0
KCO1 120057Z 13010KT 34/15 A2997 RMK A01 T03360145  RH  032%=      5-min Rain = 0
KCO1 120058Z 13012KT 34/14 A2997 RMK A01 T03360144  RH  032%=      5-min Rain = 0
KCO1 120059Z 13011KT 34/14 A2997 RMK A01 T03350143  RH  031%=      5-min Rain = 0
KCO1 120100Z 13010KT 34/14 A2997 RMK A01 T03350143  RH  031%=      5-min Rain = 0
KCO1 120101Z 12008KT 34/15 A2997 RMK A01 T03350145  RH  032%=      5-min Rain = 0
KCO1 120102Z 13011G16KT 34/15 A2997 RMK A01 T03350145  RH  032%=      5-min Rain = 0
KCO1 120103Z 14013KT 34/14 A2997 RMK A01 T03350143  RH  032%=      5-min Rain = 0
KCO1 120104Z 13012KT 33/14 A2997 RMK A01 T03340142  RH  031%=      5-min Rain = 0
KCO1 120105Z 13011KT 33/14 A2997 RMK A01 T03340143  RH  032%=      5-min Rain = 0
KCO1 120106Z 14010KT 33/14 A2997 RMK A01 T03330143  RH  032%=      5-min Rain = 0
KCO1 120107Z 13012KT 33/14 A2997 RMK A01 T03320142  RH  032%=      5-min Rain = 0
KCO1 120108Z 14013KT 33/14 A2997 RMK A01 T03310142  RH  032%=      5-min Rain = 0
KCO1 120109Z 13012KT 33/14 A2996 RMK A01 T03310140  RH  032%=      5-min Rain = 0
KCO1 120110Z 13011KT 33/14 A2996 RMK A01 T03300141  RH  032%=      5-min Rain = 0
KCO1 120111Z 13010KT 33/14 A2997 RMK A01 T03300142  RH  032%=      5-min Rain = 0
KCO1 120112Z 13014KT 33/14 A2997 RMK A01 T03290141  RH  032%=      5-min Rain = 0
KCO1 120113Z 13012KT 33/14 A2997 RMK A01 T03280140  RH  032%=      5-min Rain = 0
KCO1 120114Z 13013KT 33/14 A2997 RMK A01 T03280139  RH  032%=      5-min Rain = 0
KCO1 120115Z 14011KT 33/14 A2997 RMK A01 T03280139  RH  032%=      5-min Rain = 0
KCO1 120116Z 13011KT 33/14 A2997 RMK A01 T03280139  RH  032%=      5-min Rain = 0
KCO1 120117Z 13012KT 33/14 A2997 RMK A01 T03270139  RH  032%=      5-min Rain = 0
KCO1 120118Z 13011KT 33/14 A2997 RMK A01 T03270138  RH  032%=      5-min Rain = 0
KCO1 120119Z 13013KT 33/14 A2997 RMK A01 T03270138  RH  032%=      5-min Rain = 0
KCO1 120120Z 13012KT 33/14 A2997 RMK A01 T03270137  RH  032%=      5-min Rain = 0
KCO1 120121Z 13012KT 33/14 A2997 RMK A01 T03260137  RH  032%=      5-min Rain = 0
KCO1 120122Z 13012KT 33/14 A2997 RMK A01 T03260138  RH  032%=      5-min Rain = 0
KCO1 120123Z 13012KT 33/14 A2997 RMK A01 T03260138  RH  032%=      5-min Rain = 0
KCO1 120124Z 13011KT 33/14 A2997 RMK A01 T03250138  RH  032%=      5-min Rain = 0
KCO1 120125Z 13011KT 33/14 A2997 RMK A01 T03250138  RH  032%=      5-min Rain = 0
KCO1 120126Z 13010KT 33/14 A2997 RMK A01 T03250138  RH  032%=      5-min Rain = 0
KCO1 120127Z 13007KT 32/14 A2997 RMK A01 T03240138  RH  032%=      5-min Rain = 0
KCO1 120128Z 13009KT 32/14 A2997 RMK A01 T03240139  RH  033%=      5-min Rain = 0
KCO1 120129Z 13010KT 32/14 A2997 RMK A01 T03230138  RH  033%=      5-min Rain = 0
KCO1 120130Z 13011KT 32/14 A2997 RMK A01 T03230138  RH  032%=      5-min Rain = 0
KCO1 120131Z 13010KT 32/14 A2997 RMK A01 T03230138  RH  033%=      5-min Rain = 0
KCO1 120132Z 13012KT 32/14 A2997 RMK A01 T03230137  RH  032%=      5-min Rain = 0
KCO1 120133Z 13011KT 32/14 A2997 RMK A01 T03230137  RH  032%=      5-min Rain = 0
KCO1 120134Z 13010KT 32/14 A2997 RMK A01 T03230136  RH  032%=      5-min Rain = 0
KCO1 120135Z 13010KT 32/14 A2997 RMK A01 T03230136  RH  032%=      5-min Rain = 0
KCO1 120136Z 13009KT 32/14 A2997 RMK A01 T03230137  RH  032%=      5-min Rain = 0
KCO1 120137Z 13009KT 32/14 A2997 RMK A01 T03220137  RH  032%=      5-min Rain = 0
KCO1 120138Z 13011KT 32/14 A2997 RMK A01 T03210137  RH  033%=      5-min Rain = 0
KCO1 120139Z 13010KT 32/14 A2997 RMK A01 T03210136  RH  033%=      5-min Rain = 0
KCO1 120140Z 13010KT 32/14 A2997 RMK A01 T03210137  RH  033%=      5-min Rain = 0
KCO1 120141Z 13011KT 32/14 A2997 RMK A01 T03210136  RH  033%=      5-min Rain = 0
KCO1 120142Z 13009KT 32/14 A2997 RMK A01 T03210135  RH  032%=      5-min Rain = 0
KCO1 120143Z 13010KT 32/14 A2997 RMK A01 T03210136  RH  033%=      5-min Rain = 0
KCO1 120144Z 13009KT 32/14 A2997 RMK A01 T03200136  RH  033%=      5-min Rain = 0
KCO1 120145Z 13008KT 32/14 A2997 RMK A01 T03200137  RH  033%=      5-min Rain = 0
KCO1 120146Z 13009KT 32/14 A2997 RMK A01 T03190137  RH  033%=      5-min Rain = 0
KCO1 120147Z 13009KT 32/14 A2997 RMK A01 T03180137  RH  033%=      5-min Rain = 0
KCO1 120148Z 13009KT 32/14 A2998 RMK A01 T03180137  RH  033%=      5-min Rain = 0
KCO1 120149Z 13009KT 32/14 A2998 RMK A01 T03170137  RH  033%=      5-min Rain = 0
KCO1 120150Z 13010KT 32/14 A2998 RMK A01 T03170137  RH  034%=      5-min Rain = 0
KCO1 120151Z 13010KT 32/14 A2998 RMK A01 T03160137  RH  034%=      5-min Rain = 0
KCO1 120152Z 13009KT 32/14 A2998 RMK A01 T03160137  RH  034%=      5-min Rain = 0
KCO1 120153Z 13009KT 32/14 A2998 RMK A01 T03150138  RH  034%=      5-min Rain = 0
KCO1 120154Z 13010KT 32/14 A2998 RMK A01 T03150138  RH  034%=      5-min Rain = 0
KCO1 120155Z 13009KT 32/14 A2998 RMK A01 T03150138  RH  034%=      5-min Rain = 0
KCO1 120156Z 13010KT 32/14 A2998 RMK A01 T03150138  RH  034%=      5-min Rain = 0
KCO1 120157Z 13009KT 32/14 A2998 RMK A01 T03150138  RH  034%=      5-min Rain = 0
KCO1 120158Z 13009KT 32/14 A2998 RMK A01 T03150139  RH  034%=      5-min Rain = 0
KCO1 120159Z 13009KT 32/14 A2998 RMK A01 T03150139  RH  034%=      5-min Rain = 0
KCO1 120200Z 13009KT 31/14 A2998 RMK A01 T03140139  RH  035%=      5-min Rain = 0
KCO1 120201Z 13010KT 31/14 A2998 RMK A01 T03140140  RH  035%=      5-min Rain = 0
KCO1 120202Z 13010KT 31/14 A2998 RMK A01 T03130140  RH  035%=      5-min Rain = 0
KCO1 120203Z 13008KT 31/14 A2998 RMK A01 T03130140  RH  035%=      5-min Rain = 0
KCO1 120204Z 13010KT 31/14 A2998 RMK A01 T03140141  RH  035%=      5-min Rain = 0
KCO1 120205Z 12009KT 31/14 A2998 RMK A01 T03130141  RH  035%=      5-min Rain = 0
KCO1 120206Z 12009KT 31/14 A2998 RMK A01 T03130141  RH  035%=      5-min Rain = 0
KCO1 120207Z 12009KT 31/14 A2998 RMK A01 T03120142  RH  035%=      5-min Rain = 0
KCO1 120208Z 12009KT 31/14 A2998 RMK A01 T03120141  RH  035%=      5-min Rain = 0
KCO1 120209Z 12009KT 31/14 A2998 RMK A01 T03120142  RH  036%=      5-min Rain = 0
KCO1 120210Z 12010KT 31/14 A2999 RMK A01 T03120142  RH  036%=      5-min Rain = 0
KCO1 120211Z 12011KT 31/14 A2999 RMK A01 T03110142  RH  036%=      5-min Rain = 0
KCO1 120212Z 12010KT 31/14 A2999 RMK A01 T03120142  RH  036%=      5-min Rain = 0
KCO1 120213Z 12010KT 31/14 A2999 RMK A01 T03110142  RH  036%=      5-min Rain = 0
KCO1 120214Z 12010KT 31/14 A2999 RMK A01 T03110141  RH  036%=      5-min Rain = 0
KCO1 120215Z 12010KT 31/14 A2999 RMK A01 T03110142  RH  036%=      5-min Rain = 0
KCO1 120216Z 12010KT 31/14 A2999 RMK A01 T03110142  RH  036%=      5-min Rain = 0
KCO1 120217Z 12009KT 31/14 A2999 RMK A01 T03100142  RH  036%=      5-min Rain = 0
KCO1 120218Z 12009KT 31/14 A2999 RMK A01 T03100142  RH  036%=      5-min Rain = 0
KCO1 120219Z 12010KT 31/14 A2999 RMK A01 T03100142  RH  036%=      5-min Rain = 0
KCO1 120220Z 12009KT 31/14 A2999 RMK A01 T03100141  RH  036%=      5-min Rain = 0
KCO1 120221Z 12010KT 31/14 A30 RMK A01 T03100141  RH  036%=      5-min Rain = 0
KCO1 120222Z 12010KT 31/14 A30 RMK A01 T03090141  RH  036%=      5-min Rain = 0
KCO1 120223Z 12010KT 31/14 A30 RMK A01 T03090141  RH  036%=      5-min Rain = 0
KCO1 120224Z 12009KT 31/14 A30 RMK A01 T03090142  RH  036%=      5-min Rain = 0
KCO1 120225Z 12008KT 31/14 A30 RMK A01 T03090142  RH  036%=      5-min Rain = 0
KCO1 120226Z 12009KT 31/14 A30 RMK A01 T03080142  RH  036%=      5-min Rain = 0
KCO1 120227Z 12010KT 31/14 A30 RMK A01 T03070142  RH  036%=      5-min Rain = 0
KCO1 120228Z 12009KT 31/14 A30 RMK A01 T03070141  RH  036%=      5-min Rain = 0
KCO1 120229Z 12008KT 31/14 A30 RMK A01 T03070141  RH  037%=      5-min Rain = 0
KCO1 120230Z 12008KT 31/14 A30 RMK A01 T03060142  RH  037%=      5-min Rain = 0
KCO1 120231Z 12008KT 31/14 A30 RMK A01 T03060142  RH  037%=      5-min Rain = 0
KCO1 120232Z 12009KT 31/14 A30 RMK A01 T03050141  RH  037%=      5-min Rain = 0
KCO1 120233Z 12009KT 31/14 A30 RMK A01 T03050142  RH  037%=      5-min Rain = 0
KCO1 120234Z 12009KT 31/14 A30 RMK A01 T03050142  RH  037%=      5-min Rain = 0
KCO1 120235Z 12010KT 31/14 A30 RMK A01 T03050142  RH  037%=      5-min Rain = 0
KCO1 120236Z 12010KT 31/14 A30 RMK A01 T03050142  RH  037%=      5-min Rain = 0
KCO1 120237Z 12009KT 30/14 A30 RMK A01 T03040142  RH  037%=      5-min Rain = 0
KCO1 120238Z 12008KT 30/14 A30 RMK A01 T03040142  RH  037%=      5-min Rain = 0
KCO1 120239Z 12009KT 30/14 A30 RMK A01 T03040142  RH  037%=      5-min Rain = 0
KCO1 120240Z 12008KT 30/14 A30 RMK A01 T03040142  RH  037%=      5-min Rain = 0
KCO1 120241Z 12008KT 30/14 A3001 RMK A01 T03030142  RH  037%=      5-min Rain = 0
KCO1 120242Z 12008KT 30/14 A3001 RMK A01 T03030142  RH  038%=      5-min Rain = 0
KCO1 120243Z 12009KT 30/14 A3001 RMK A01 T03020142  RH  038%=      5-min Rain = 0
KCO1 120244Z 12008KT 30/14 A3001 RMK A01 T03020142  RH  038%=      5-min Rain = 0
KCO1 120245Z 12009KT 30/14 A3001 RMK A01 T03020142  RH  038%=      5-min Rain = 0
KCO1 120246Z 12009KT 30/14 A3001 RMK A01 T03020142  RH  038%=      5-min Rain = 0
KCO1 120247Z 12009KT 30/14 A3001 RMK A01 T03010142  RH  038%=      5-min Rain = 0
KCO1 120248Z 12008KT 30/14 A3001 RMK A01 T03010143  RH  038%=      5-min Rain = 0
KCO1 120249Z 13008KT 30/14 A3001 RMK A01 T03010142  RH  038%=      5-min Rain = 0
KCO1 120250Z 13008KT 30/14 A3001 RMK A01 T03000143  RH  038%=      5-min Rain = 0
KCO1 120251Z 12008KT 30/14 A3001 RMK A01 T03000143  RH  038%=      5-min Rain = 0
KCO1 120252Z 12008KT 30/14 A3001 RMK A01 T03000143  RH  038%=      5-min Rain = 0
KCO1 120253Z 12008KT 30/14 A3001 RMK A01 T02990143  RH  039%=      5-min Rain = 0
KCO1 120254Z 12008KT 30/14 A3001 RMK A01 T02990143  RH  039%=      5-min Rain = 0
KCO1 120255Z 12008KT 30/14 A3001 RMK A01 T02980143  RH  039%=      5-min Rain = 0
KCO1 120256Z 12007KT 30/14 A3001 RMK A01 T02980143  RH  039%=      5-min Rain = 0
KCO1 120257Z 12008KT 30/14 A3002 RMK A01 T02980143  RH  039%=      5-min Rain = 0
KCO1 120258Z 12008KT 30/14 A3002 RMK A01 T02970143  RH  039%=      5-min Rain = 0
KCO1 120259Z 12009KT 30/14 A3002 RMK A01 T02970143  RH  039%=      5-min Rain = 0
KCO1 120300Z 12010KT 30/14 A3002 RMK A01 T02970143  RH  039%=      5-min Rain = 0
KCO1 120301Z 12009KT 30/14 A3002 RMK A01 T02970142  RH  039%=      5-min Rain = 0
KCO1 120302Z 12008KT 30/14 A3002 RMK A01 T02970142  RH  039%=      5-min Rain = 0
KCO1 120303Z 12009KT 30/14 A3002 RMK A01 T02970142  RH  039%=      5-min Rain = 0
KCO1 120304Z 13008KT 30/14 A3002 RMK A01 T02960143  RH  039%=      5-min Rain = 0
KCO1 120305Z 13009KT 30/14 A3002 RMK A01 T02960142  RH  039%=      5-min Rain = 0
KCO1 120306Z 13007KT 30/14 A3002 RMK A01 T02960143  RH  039%=      5-min Rain = 0
KCO1 120307Z 12007KT 30/14 A3002 RMK A01 T02950143  RH  039%=      5-min Rain = 0
KCO1 120308Z 13008KT 30/14 A3002 RMK A01 T02950142  RH  039%=      5-min Rain = 0
KCO1 120309Z 13008KT 29/14 A3002 RMK A01 T02940142  RH  039%=      5-min Rain = 0
KCO1 120310Z 12008KT 30/14 A3002 RMK A01 T02950142  RH  039%=      5-min Rain = 0
KCO1 120311Z 12009KT 29/14 A3002 RMK A01 T02940143  RH  040%=      5-min Rain = 0
KCO1 120312Z 13009KT 29/14 A3002 RMK A01 T02940142  RH  040%=      5-min Rain = 0
KCO1 120313Z 12008KT 29/14 A3002 RMK A01 T02930142  RH  040%=      5-min Rain = 0
KCO1 120314Z 13009KT 29/14 A3002 RMK A01 T02940142  RH  039%=      5-min Rain = 0
KCO1 120315Z 13009KT 29/14 A3002 RMK A01 T02940142  RH  040%=      5-min Rain = 0
KCO1 120316Z 13009KT 29/14 A3002 RMK A01 T02940142  RH  040%=      5-min Rain = 0
KCO1 120317Z 13010KT 29/14 A3002 RMK A01 T02940142  RH  040%=      5-min Rain = 0
KCO1 120318Z 13008KT 29/14 A3002 RMK A01 T02940142  RH  040%=      5-min Rain = 0
KCO1 120319Z 13008KT 29/14 A3002 RMK A01 T02940143  RH  040%=      5-min Rain = 0
KCO1 120320Z 13010KT 29/14 A3002 RMK A01 T02930142  RH  040%=      5-min Rain = 0
KCO1 120321Z 13009KT 29/14 A3002 RMK A01 T02930142  RH  040%=      5-min Rain = 0
KCO1 120322Z 13009KT 29/14 A3002 RMK A01 T02930142  RH  040%=      5-min Rain = 0
KCO1 120323Z 13010KT 29/14 A3002 RMK A01 T02930142  RH  040%=      5-min Rain = 0
KCO1 120324Z 12009KT 29/14 A3002 RMK A01 T02930142  RH  040%=      5-min Rain = 0
KCO1 120325Z 13010KT 29/14 A3002 RMK A01 T02930142  RH  040%=      5-min Rain = 0
KCO1 120326Z 13009KT 29/14 A3002 RMK A01 T02930142  RH  040%=      5-min Rain = 0
KCO1 120327Z 13008KT 29/14 A3003 RMK A01 T02930142  RH  040%=      5-min Rain = 0
KCO1 120328Z 12009KT 29/14 A3003 RMK A01 T02930142  RH  040%=      5-min Rain = 0
KCO1 120329Z 13010KT 29/14 A3003 RMK A01 T02930142  RH  040%=      5-min Rain = 0
KCO1 120330Z 13009KT 29/14 A3003 RMK A01 T02930142  RH  040%=      5-min Rain = 0
KCO1 120331Z 13009KT 29/14 A3003 RMK A01 T02930143  RH  040%=      5-min Rain = 0
KCO1 120332Z 13009KT 29/14 A3003 RMK A01 T02920142  RH  040%=      5-min Rain = 0
KCO1 120333Z 13009KT 29/14 A3003 RMK A01 T02920142  RH  040%=      5-min Rain = 0
KCO1 120334Z 13009KT 29/14 A3003 RMK A01 T02920143  RH  040%=      5-min Rain = 0
KCO1 120335Z 13008KT 29/14 A3003 RMK A01 T02930143  RH  040%=      5-min Rain = 0
KCO1 120336Z 13009KT 29/14 A3003 RMK A01 T02920143  RH  040%=      5-min Rain = 0
KCO1 120337Z 13009KT 29/14 A3003 RMK A01 T02920143  RH  040%=      5-min Rain = 0
KCO1 120338Z 13009KT 29/14 A3003 RMK A01 T02910144  RH  040%=      5-min Rain = 0
KCO1 120339Z 13008KT 29/14 A3003 RMK A01 T02910144  RH  041%=      5-min Rain = 0
KCO1 120340Z 13008KT 29/14 A3003 RMK A01 T02900144  RH  041%=      5-min Rain = 0
KCO1 120341Z 13009KT 29/14 A3003 RMK A01 T02900144  RH  041%=      5-min Rain = 0
KCO1 120342Z 13009KT 29/14 A3003 RMK A01 T02900144  RH  041%=      5-min Rain = 0
KCO1 120343Z 13008KT 29/14 A3003 RMK A01 T02890144  RH  041%=      5-min Rain = 0
KCO1 120344Z 13008KT 29/15 A3003 RMK A01 T02890145  RH  041%=      5-min Rain = 0
KCO1 120345Z 13008KT 29/14 A3003 RMK A01 T02890144  RH  041%=      5-min Rain = 0
KCO1 120346Z 13010KT 29/15 A3004 RMK A01 T02890145  RH  041%=      5-min Rain = 0
KCO1 120347Z 13008KT 29/15 A3004 RMK A01 T02890145  RH  041%=      5-min Rain = 0
KCO1 120348Z 13009KT 29/15 A3004 RMK A01 T02890145  RH  041%=      5-min Rain = 0
KCO1 120349Z 13010KT 29/15 A3004 RMK A01 T02890145  RH  042%=      5-min Rain = 0
KCO1 120350Z 13008KT 29/15 A3004 RMK A01 T02890146  RH  042%=      5-min Rain = 0
KCO1 120351Z 13010KT 29/15 A3004 RMK A01 T02890146  RH  042%=      5-min Rain = 0
KCO1 120352Z 12010KT 29/15 A3004 RMK A01 T02890146  RH  042%=      5-min Rain = 0
KCO1 120353Z 13010KT 29/15 A3004 RMK A01 T02890146  RH  042%=      5-min Rain = 0
KCO1 120354Z 12011KT 29/15 A3004 RMK A01 T02890146  RH  041%=      5-min Rain = 0
KCO1 120355Z 13012KT 29/15 A3004 RMK A01 T02900146  RH  041%=      5-min Rain = 0
KCO1 120356Z 13010KT 29/15 A3004 RMK A01 T02900146  RH  041%=      5-min Rain = 0
KCO1 120357Z 13009KT 29/15 A3004 RMK A01 T02910146  RH  041%=      5-min Rain = 0
KCO1 120358Z 13010KT 29/15 A3004 RMK A01 T02900147  RH  042%=      5-min Rain = 0
KCO1 120359Z 13010KT 29/15 A3004 RMK A01 T02900147  RH  042%=      5-min Rain = 0
KCO1 120400Z 13009KT 29/15 A3004 RMK A01 T02900147  RH  042%=      5-min Rain = 0
KCO1 120401Z 13010KT 29/15 A3004 RMK A01 T02890147  RH  042%=      5-min Rain = 0
KCO1 120402Z 13010KT 29/15 A3004 RMK A01 T02900147  RH  042%=      5-min Rain = 0
KCO1 120403Z 13012KT 29/15 A3004 RMK A01 T02890147  RH  042%=      5-min Rain = 0
KCO1 120404Z 13012KT 29/15 A3004 RMK A01 T02890147  RH  042%=      5-min Rain = 0
KCO1 120405Z 12013KT 29/15 A3004 RMK A01 T02900147  RH  042%=      5-min Rain = 0
KCO1 120406Z 13011KT 29/15 A3004 RMK A01 T02900147  RH  042%=      5-min Rain = 0
KCO1 120407Z 13011KT 29/15 A3004 RMK A01 T02900147  RH  042%=      5-min Rain = 0
KCO1 120408Z 13010KT 29/15 A3004 RMK A01 T02900147  RH  042%=      5-min Rain = 0
KCO1 120409Z 12010KT 29/15 A3004 RMK A01 T02890148  RH  042%=      5-min Rain = 0
KCO1 120410Z 13012KT 29/15 A3004 RMK A01 T02890148  RH  042%=      5-min Rain = 0
KCO1 120411Z 13010KT 29/15 A3004 RMK A01 T02880148  RH  042%=      5-min Rain = 0
KCO1 120412Z 13009KT 29/15 A3004 RMK A01 T02880148  RH  042%=      5-min Rain = 0
KCO1 120413Z 13010KT 29/15 A3004 RMK A01 T02880148  RH  042%=      5-min Rain = 0
KCO1 120414Z 13010KT 29/15 A3004 RMK A01 T02880148  RH  042%=      5-min Rain = 0
KCO1 120415Z 13010KT 29/15 A3004 RMK A01 T02880148  RH  043%=      5-min Rain = 0
KCO1 120416Z 12010KT 29/15 A3004 RMK A01 T02870148  RH  043%=      5-min Rain = 0
KCO1 120417Z 13009KT 29/15 A3004 RMK A01 T02870148  RH  043%=      5-min Rain = 0
KCO1 120418Z 13010KT 29/15 A3004 RMK A01 T02870148  RH  043%=      5-min Rain = 0
KCO1 120419Z 12011KT 29/15 A3004 RMK A01 T02860148  RH  043%=      5-min Rain = 0
KCO1 120420Z 13011KT 29/15 A3004 RMK A01 T02860148  RH  043%=      5-min Rain = 0
KCO1 120421Z 13009KT 29/15 A3004 RMK A01 T02860148  RH  043%=      5-min Rain = 0
KCO1 120422Z 12010KT 29/15 A3004 RMK A01 T02860148  RH  043%=      5-min Rain = 0
KCO1 120423Z 13009KT 29/15 A3004 RMK A01 T02860148  RH  043%=      5-min Rain = 0
KCO1 120424Z 12010KT 29/15 A3005 RMK A01 T02860149  RH  043%=      5-min Rain = 0
KCO1 120425Z 12009KT 29/15 A3005 RMK A01 T02850149  RH  043%=      5-min Rain = 0
KCO1 120426Z 12010KT 29/15 A3005 RMK A01 T02850149  RH  043%=      5-min Rain = 0
KCO1 120427Z 12010KT 28/15 A3005 RMK A01 T02840148  RH  043%=      5-min Rain = 0
KCO1 120428Z 13011KT 28/15 A3005 RMK A01 T02840149  RH  044%=      5-min Rain = 0
KCO1 120429Z 12010KT 28/15 A3005 RMK A01 T02840149  RH  044%=      5-min Rain = 0
KCO1 120430Z 12010KT 28/15 A3005 RMK A01 T02840148  RH  044%=      5-min Rain = 0
KCO1 120431Z 12009KT 28/15 A3005 RMK A01 T02840148  RH  043%=      5-min Rain = 0
KCO1 120432Z 12011KT 28/15 A3005 RMK A01 T02840149  RH  044%=      5-min Rain = 0
KCO1 120433Z 13010KT 28/15 A3005 RMK A01 T02840148  RH  044%=      5-min Rain = 0
KCO1 120434Z 13011KT 28/15 A3005 RMK A01 T02840148  RH  044%=      5-min Rain = 0
KCO1 120435Z 12010KT 28/15 A3005 RMK A01 T02840148  RH  044%=      5-min Rain = 0
KCO1 120436Z 12010KT 28/15 A3005 RMK A01 T02840149  RH  044%=      5-min Rain = 0
KCO1 120437Z 13011KT 28/15 A3005 RMK A01 T02830149  RH  044%=      5-min Rain = 0
KCO1 120438Z 13010KT 28/15 A3005 RMK A01 T02830149  RH  044%=      5-min Rain = 0
KCO1 120439Z 12011KT 28/15 A3005 RMK A01 T02830149  RH  044%=      5-min Rain = 0
KCO1 120440Z 13011KT 28/15 A3005 RMK A01 T02830148  RH  044%=      5-min Rain = 0
KCO1 120441Z 13011KT 28/15 A3005 RMK A01 T02830148  RH  044%=      5-min Rain = 0
KCO1 120442Z 12011KT 28/15 A3005 RMK A01 T02830149  RH  044%=      5-min Rain = 0
KCO1 120443Z 13011KT 28/15 A3005 RMK A01 T02830149  RH  044%=      5-min Rain = 0
KCO1 120444Z 13011KT 28/15 A3005 RMK A01 T02830148  RH  044%=      5-min Rain = 0
KCO1 120445Z 13010KT 28/15 A3005 RMK A01 T02830149  RH  044%=      5-min Rain = 0
KCO1 120446Z 13012KT 28/15 A3005 RMK A01 T02830148  RH  044%=      5-min Rain = 0
KCO1 120447Z 13012KT 28/15 A3005 RMK A01 T02830149  RH  044%=      5-min Rain = 0
KCO1 120448Z 13010KT 28/15 A3005 RMK A01 T02830149  RH  044%=      5-min Rain = 0
KCO1 120449Z 13012KT 28/15 A3005 RMK A01 T02830149  RH  044%=      5-min Rain = 0
KCO1 120450Z 12009KT 28/15 A3005 RMK A01 T02830149  RH  044%=      5-min Rain = 0
KCO1 120451Z 13011KT 28/15 A3005 RMK A01 T02830149  RH  044%=      5-min Rain = 0
KCO1 120452Z 13011KT 28/15 A3006 RMK A01 T02820149  RH  044%=      5-min Rain = 0
KCO1 120453Z 12012KT 28/15 A3006 RMK A01 T02820149  RH  044%=      5-min Rain = 0
KCO1 120454Z 12009KT 28/15 A3006 RMK A01 T02820149  RH  044%=      5-min Rain = 0
KCO1 120455Z 13011KT 28/15 A3006 RMK A01 T02820149  RH  044%=      5-min Rain = 0
KCO1 120456Z 13012KT 28/15 A3006 RMK A01 T02820149  RH  044%=      5-min Rain = 0
KCO1 120457Z 13012KT 28/15 A3006 RMK A01 T02820149  RH  044%=      5-min Rain = 0
KCO1 120458Z 12012KT 28/15 A3006 RMK A01 T02820149  RH  044%=      5-min Rain = 0
KCO1 120459Z 13010KT 28/15 A3006 RMK A01 T02820149  RH  044%=      5-min Rain = 0
KCO1 120500Z 12011KT 28/15 A3006 RMK A01 T02820149  RH  044%=      5-min Rain = 0

Page generated in 0.0339 seconds.